
Distance (Route):
Temperature : -14.9°C
Humidity : 59.0%
Pressure : 0hPa| Receiver | Frames | First received | Last received |
|---|---|---|---|
| DL9RDZ-1 | 486 | 2026-09-05 11:03:38 | 2026-09-05 12:53:27 |
| Receiver | Date | Latitude | Longitude | Direction | Speed | Altitude | Climb | Temperature | Humidity | Pressure | Voltage | Killtimer | Uptime | BKT | XDATA |
|---|---|---|---|---|---|---|---|---|---|---|---|---|---|---|---|
| DL9RDZ-1 | 2026-09-05 12:53:27 | 64.24624 | -21.23773 | 12° | 27km/h | 4016m | -16.5m/s | -14.9°C | 59.0% | 0hPa | 0V | 08:17:00 | 00:00:00 | 00:00:00 | |
| DL9RDZ-1 | 2026-09-05 12:53:16 | 64.24560 | -21.23814 | 1° | 18km/h | 4187m | -16.0m/s | -15.7°C | 35.5% | 0hPa | 0V | 08:17:00 | 00:00:00 | 00:00:00 | |
| DL9RDZ-1 | 2026-09-05 12:53:06 | 64.24512 | -21.23846 | 40° | 16km/h | 4356m | -16.2m/s | -15.1°C | 14.6% | 0hPa | 0V | 08:17:00 | 00:00:00 | 00:00:00 | |
| DL9RDZ-1 | 2026-09-05 12:52:54 | 64.24477 | -21.23964 | 65° | 26km/h | 4529m | -17.6m/s | -15.1°C | 5.2% | 0hPa | 0V | 08:17:00 | 00:00:00 | 00:00:00 | |
| DL9RDZ-1 | 2026-09-05 12:52:43 | 64.24443 | -21.24102 | 70° | 24km/h | 4707m | -17.2m/s | -16.3°C | 7.6% | 0hPa | 0V | 08:17:00 | 00:00:00 | 00:00:00 | |
| DL9RDZ-1 | 2026-09-05 12:52:33 | 64.24417 | -21.24226 | 64° | 22km/h | 4869m | -17.0m/s | -17.6°C | 10.6% | 0hPa | 0V | 08:17:00 | 00:00:00 | 00:00:00 | |
| DL9RDZ-1 | 2026-09-05 12:52:22 | 64.24389 | -21.24372 | 69° | 24km/h | 5049m | -17.4m/s | -19.1°C | 12.0% | 0hPa | 0V | 08:17:00 | 00:00:00 | 00:00:00 | |
| DL9RDZ-1 | 2026-09-05 12:52:12 | 64.24365 | -21.24494 | 65° | 26km/h | 5215m | -16.8m/s | -20.4°C | 13.1% | 0hPa | 0V | 08:18:00 | 00:00:00 | 00:00:00 | |
| DL9RDZ-1 | 2026-09-05 12:52:02 | 64.24336 | -21.24652 | 75° | 29km/h | 5400m | -17.6m/s | -22.0°C | 15.9% | 0hPa | 0V | 08:18:00 | 00:00:00 | 00:00:00 | |
| DL9RDZ-1 | 2026-09-05 12:51:51 | 64.24307 | -21.24822 | 67° | 27km/h | 5587m | -17.6m/s | -23.6°C | 18.6% | 0hPa | 0V | 08:18:00 | 00:00:00 | 00:00:00 | |
| DL9RDZ-1 | 2026-09-05 12:51:40 | 64.24271 | -21.24997 | 63° | 31km/h | 5774m | -18.1m/s | -25.0°C | 23.4% | 0hPa | 0V | 08:18:00 | 00:00:00 | 00:00:00 | |
| DL9RDZ-1 | 2026-09-05 12:51:28 | 64.24235 | -21.25180 | 67° | 31km/h | 5968m | -17.9m/s | -26.7°C | 28.7% | 0hPa | 0V | 08:18:00 | 00:00:00 | 00:00:00 | |
| DL9RDZ-1 | 2026-09-05 12:51:17 | 64.24197 | -21.25377 | 65° | 33km/h | 6162m | -18.3m/s | -28.4°C | 34.9% | 0hPa | 0V | 08:19:00 | 00:00:00 | 00:00:00 | |
| DL9RDZ-1 | 2026-09-05 12:51:06 | 64.24156 | -21.25574 | 67° | 35km/h | 6357m | -18.5m/s | -29.8°C | 36.2% | 0hPa | 0V | 08:19:00 | 00:00:00 | 00:00:00 | |
| DL9RDZ-1 | 2026-09-05 12:50:56 | 64.24120 | -21.25765 | 65° | 38km/h | 6530m | -18.9m/s | -31.3°C | 37.7% | 0hPa | 0V | 08:19:00 | 00:00:00 | 00:00:00 | |
| DL9RDZ-1 | 2026-09-05 12:50:46 | 64.24068 | -21.25978 | 60° | 38km/h | 6726m | -18.7m/s | -32.5°C | 34.6% | 0hPa | 0V | 08:19:00 | 00:00:00 | 00:00:00 | |
| DL9RDZ-1 | 2026-09-05 12:50:34 | 64.24013 | -21.26217 | 64° | 44km/h | 6927m | -18.5m/s | -34.1°C | 37.6% | 0hPa | 0V | 08:20:00 | 00:00:00 | 00:00:00 | |
| DL9RDZ-1 | 2026-09-05 12:50:24 | 64.23962 | -21.26443 | 62° | 47km/h | 7111m | -19.6m/s | -35.6°C | 34.9% | 0hPa | 0V | 08:20:00 | 00:00:00 | 00:00:00 | |
| DL9RDZ-1 | 2026-09-05 12:50:14 | 64.23894 | -21.26726 | 63° | 53km/h | 7317m | -19.9m/s | -36.9°C | 33.2% | 0hPa | 0V | 08:20:00 | 00:00:00 | 00:00:00 | |
| DL9RDZ-1 | 2026-09-05 12:50:03 | 64.23833 | -21.27013 | 65° | 55km/h | 7514m | -20.2m/s | -38.5°C | 35.5% | 0hPa | 0V | 08:20:00 | 00:00:00 | 00:00:00 | |
| DL9RDZ-1 | 2026-09-05 12:49:52 | 64.23763 | -21.27354 | 64° | 60km/h | 7727m | -21.1m/s | -40.2°C | 35.0% | 0hPa | 0V | 08:20:00 | 00:00:00 | 00:00:00 | |
| DL9RDZ-1 | 2026-09-05 12:49:41 | 64.23691 | -21.27712 | 68° | 62km/h | 7941m | -20.8m/s | -42.0°C | 35.5% | 0hPa | 0V | 08:21:00 | 00:00:00 | 00:00:00 | |
| DL9RDZ-1 | 2026-09-05 12:49:30 | 64.23630 | -21.28083 | 71° | 62km/h | 8160m | -20.9m/s | -43.8°C | 34.7% | 0hPa | 0V | 08:21:00 | 00:00:00 | 00:00:00 | |
| DL9RDZ-1 | 2026-09-05 12:49:19 | 64.23570 | -21.28450 | 67° | 60km/h | 8376m | -20.5m/s | -45.1°C | 26.7% | 0hPa | 0V | 08:21:00 | 00:00:00 | 00:00:00 | |
| DL9RDZ-1 | 2026-09-05 12:49:08 | 64.23499 | -21.28812 | 66° | 64km/h | 8595m | -21.0m/s | -46.3°C | 28.1% | 0hPa | 0V | 08:21:00 | 00:00:00 | 00:00:00 | |
| DL9RDZ-1 | 2026-09-05 12:48:58 | 64.23433 | -21.29150 | 67° | 66km/h | 8802m | -21.1m/s | -47.6°C | 27.5% | 0hPa | 0V | 08:21:00 | 00:00:00 | 00:00:00 | |
| DL9RDZ-1 | 2026-09-05 12:48:48 | 64.23369 | -21.29519 | 72° | 62km/h | 9024m | -21.3m/s | -48.5°C | 23.1% | 0hPa | 0V | 08:22:00 | 00:00:00 | 00:00:00 | |
| DL9RDZ-1 | 2026-09-05 12:48:36 | 64.23310 | -21.29900 | 69° | 64km/h | 9252m | -21.9m/s | -48.8°C | 20.2% | 0hPa | 0V | 08:22:00 | 00:00:00 | 00:00:00 | |
| DL9RDZ-1 | 2026-09-05 12:48:26 | 64.23240 | -21.30273 | 65° | 68km/h | 9483m | -21.2m/s | -49.9°C | 18.2% | 0hPa | 0V | 08:22:00 | 00:00:00 | 00:00:00 | |
| DL9RDZ-1 | 2026-09-05 12:48:15 | 64.23157 | -21.30669 | 67° | 78km/h | 9695m | -22.3m/s | -50.2°C | 14.1% | 0hPa | 0V | 08:22:00 | 00:00:00 | 00:00:00 | |
| DL9RDZ-1 | 2026-09-05 12:48:04 | 64.23061 | -21.31143 | 66° | 88km/h | 9930m | -22.5m/s | -50.5°C | 9.6% | 0hPa | 0V | 08:22:00 | 00:00:00 | 00:00:00 | |
| DL9RDZ-1 | 2026-09-05 12:47:54 | 64.22963 | -21.31623 | 66° | 95km/h | 10147m | -22.9m/s | -50.0°C | 5.4% | 0hPa | 0V | 08:23:00 | 00:00:00 | 00:00:00 | |
| DL9RDZ-1 | 2026-09-05 12:47:44 | 64.22858 | -21.32129 | 65° | 99km/h | 10366m | -23.2m/s | -49.7°C | 3.8% | 0hPa | 0V | 08:23:00 | 00:00:00 | 00:00:00 | |
| DL9RDZ-1 | 2026-09-05 12:47:34 | 64.22751 | -21.32653 | 69° | 97km/h | 10590m | -23.8m/s | -49.4°C | 2.6% | 0hPa | 0V | 08:23:00 | 00:00:00 | 00:00:00 | |
| DL9RDZ-1 | 2026-09-05 12:47:24 | 64.22657 | -21.33178 | 69° | 89km/h | 10849m | -25.1m/s | -48.7°C | 2.0% | 0hPa | 0V | 08:23:00 | 00:00:00 | 00:00:00 | |
| DL9RDZ-1 | 2026-09-05 12:47:12 | 64.22579 | -21.33714 | 77° | 80km/h | 11107m | -24.2m/s | -48.6°C | 1.8% | 0hPa | 0V | 08:23:00 | 00:00:00 | 00:00:00 | |
| DL9RDZ-1 | 2026-09-05 12:47:02 | 64.22530 | -21.34136 | 74° | 77km/h | 11344m | -24.4m/s | -48.1°C | 1.5% | 0hPa | 0V | 08:23:00 | 00:00:00 | 00:00:00 | |
| DL9RDZ-1 | 2026-09-05 12:46:52 | 64.22465 | -21.34544 | 69° | 77km/h | 11582m | -24.3m/s | -48.3°C | 1.5% | 0hPa | 0V | 08:23:00 | 00:00:00 | 00:00:00 | |
| DL9RDZ-1 | 2026-09-05 12:46:43 | 64.22407 | -21.34985 | 78° | 73km/h | 11822m | -24.2m/s | -47.6°C | 1.3% | 0hPa | 0V | 08:23:00 | 00:00:00 | 00:00:00 | |
| DL9RDZ-1 | 2026-09-05 12:46:32 | 64.22366 | -21.35394 | 73° | 71km/h | 12073m | -24.8m/s | -48.4°C | 1.4% | 0hPa | 0V | 08:23:00 | 00:00:00 | 00:00:00 | |
| DL9RDZ-1 | 2026-09-05 12:46:22 | 64.22296 | -21.35799 | 66° | 64km/h | 12343m | -25.3m/s | -47.4°C | 1.3% | 0hPa | 0V | 08:23:00 | 00:00:00 | 00:00:00 | |
| DL9RDZ-1 | 2026-09-05 12:46:11 | 64.22227 | -21.36160 | 65° | 62km/h | 12623m | -25.6m/s | -46.9°C | 1.1% | 0hPa | 0V | 08:24:00 | 00:00:00 | 00:00:00 | |
| DL9RDZ-1 | 2026-09-05 12:45:59 | 64.22153 | -21.36515 | 67° | 66km/h | 12913m | -26.6m/s | -46.0°C | 1.0% | 0hPa | 0V | 08:24:00 | 00:00:00 | 00:00:00 | |
| DL9RDZ-1 | 2026-09-05 12:45:38 | 64.22043 | -21.37138 | 65° | 47km/h | 13475m | -28.6m/s | -46.3°C | 1.0% | 0hPa | 0V | 08:24:00 | 00:00:00 | 00:00:00 | |
| DL9RDZ-1 | 2026-09-05 12:45:27 | 64.21985 | -21.37418 | 60° | 51km/h | 13757m | -26.5m/s | -46.6°C | 1.0% | 0hPa | 0V | 08:25:00 | 00:00:00 | 00:00:00 | |
| DL9RDZ-1 | 2026-09-05 12:45:17 | 64.21922 | -21.37735 | 76° | 53km/h | 14039m | -26.4m/s | -46.9°C | 1.0% | 0hPa | 0V | 08:25:00 | 00:00:00 | 00:00:00 | |
| DL9RDZ-1 | 2026-09-05 12:45:05 | 64.21882 | -21.38026 | 70° | 46km/h | 14317m | -25.6m/s | -47.4°C | 1.0% | 0hPa | 0V | 08:25:00 | 00:00:00 | 00:00:00 | |
| DL9RDZ-1 | 2026-09-05 12:44:55 | 64.21832 | -21.38259 | 59° | 47km/h | 14570m | -26.0m/s | -47.4°C | 1.0% | 0hPa | 0V | 08:25:00 | 00:00:00 | 00:00:00 | |
| DL9RDZ-1 | 2026-09-05 12:44:45 | 64.21781 | -21.38528 | 75° | 49km/h | 14823m | -25.7m/s | -48.0°C | 1.1% | 0hPa | 0V | 08:25:00 | 00:00:00 | 00:00:00 | |
| DL9RDZ-1 | 2026-09-05 12:44:34 | 64.21738 | -21.38833 | 70° | 49km/h | 15101m | -27.0m/s | -49.0°C | 1.1% | 0hPa | 0V | 08:26:00 | 00:00:00 | 00:00:00 | |
| DL9RDZ-1 | 2026-09-05 12:44:23 | 64.21691 | -21.39112 | 76° | 42km/h | 15402m | -31.9m/s | -47.8°C | 1.0% | 0hPa | 0V | 08:26:00 | 00:00:00 | 00:00:00 | |
| DL9RDZ-1 | 2026-09-05 12:44:12 | 64.21655 | -21.39333 | 66° | 37km/h | 15759m | -31.4m/s | -49.3°C | 1.1% | 0hPa | 0V | 08:26:00 | 00:00:00 | 00:00:00 | |
| DL9RDZ-1 | 2026-09-05 12:44:02 | 64.21624 | -21.39534 | 80° | 40km/h | 16076m | -33.0m/s | -49.2°C | 1.1% | 0hPa | 0V | 08:26:00 | 00:00:00 | 00:00:00 | |
| DL9RDZ-1 | 2026-09-05 12:43:52 | 64.21615 | -21.39737 | 79° | 31km/h | 16410m | -34.8m/s | -48.4°C | 1.0% | 0hPa | 0V | 08:26:00 | 00:00:00 | 00:00:00 | |
| DL9RDZ-1 | 2026-09-05 12:43:41 | 64.21571 | -21.39909 | 51° | 38km/h | 16789m | -36.8m/s | -48.3°C | 0.9% | 0hPa | 0V | 08:27:00 | 00:00:00 | 00:00:00 | |
| DL9RDZ-1 | 2026-09-05 12:43:31 | 64.21529 | -21.40115 | 74° | 35km/h | 17146m | -36.3m/s | -48.5°C | 1.0% | 0hPa | 0V | 08:27:00 | 00:00:00 | 00:00:00 | |
| DL9RDZ-1 | 2026-09-05 12:43:20 | 64.21514 | -21.40308 | 82° | 29km/h | 17547m | -36.1m/s | -48.8°C | 1.0% | 0hPa | 0V | 08:27:00 | 00:00:00 | 00:00:00 | |
| DL9RDZ-1 | 2026-09-05 12:43:11 | 64.21483 | -21.40490 | 75° | 37km/h | 17910m | -38.3m/s | -47.7°C | 0.9% | 0hPa | 0V | 08:27:00 | 00:00:00 | 00:00:00 | |
| DL9RDZ-1 | 2026-09-05 12:43:00 | 64.21455 | -21.40653 | 66° | 31km/h | 18289m | -39.1m/s | -47.4°C | 0.9% | 0hPa | 0V | 08:27:00 | 00:00:00 | 00:00:00 | |
| DL9RDZ-1 | 2026-09-05 12:42:49 | 64.21412 | -21.40813 | 53° | 29km/h | 18716m | -39.1m/s | -47.3°C | 0.8% | 0hPa | 0V | 08:28:00 | 00:00:00 | 00:00:00 | |
| DL9RDZ-1 | 2026-09-05 12:42:38 | 64.21357 | -21.40985 | 68° | 37km/h | 19160m | -40.2m/s | -48.2°C | 0.9% | 0hPa | 0V | 08:28:00 | 00:00:00 | 00:00:00 | |
| DL9RDZ-1 | 2026-09-05 12:42:28 | 64.21323 | -21.41146 | 54° | 35km/h | 19586m | -43.7m/s | -49.2°C | 0.9% | 0hPa | 0V | 08:28:00 | 00:00:00 | 00:00:00 | |
| DL9RDZ-1 | 2026-09-05 12:42:18 | 64.21276 | -21.41346 | 72° | 42km/h | 20024m | -44.1m/s | -49.6°C | 0.9% | 0hPa | 0V | 08:28:00 | 00:00:00 | 00:00:00 | |
| DL9RDZ-1 | 2026-09-05 12:42:08 | 64.21244 | -21.41589 | 69° | 38km/h | 20499m | -43.6m/s | -49.8°C | 0.9% | 0hPa | 0V | 08:28:00 | 00:00:00 | 00:00:00 | |
| DL9RDZ-1 | 2026-09-05 12:41:56 | 64.21198 | -21.41823 | 70° | 40km/h | 20996m | -48.0m/s | -49.1°C | 0.9% | 0hPa | 0V | 08:28:00 | 00:00:00 | 00:00:00 | |
| DL9RDZ-1 | 2026-09-05 12:41:45 | 64.21172 | -21.42068 | 79° | 38km/h | 21511m | -46.4m/s | -49.0°C | 0.9% | 0hPa | 0V | 08:28:00 | 00:00:00 | 00:00:00 | |
| DL9RDZ-1 | 2026-09-05 12:41:35 | 64.21142 | -21.42299 | 70° | 38km/h | 22025m | -49.3m/s | -47.5°C | 0.8% | 0hPa | 0V | 08:28:00 | 00:00:00 | 00:00:00 | |
| DL9RDZ-1 | 2026-09-05 12:41:24 | 64.21119 | -21.42478 | 70° | 29km/h | 22536m | -52.7m/s | -48.1°C | 0.8% | 0hPa | 0V | 08:28:00 | 00:00:00 | 00:00:00 | |
| DL9RDZ-1 | 2026-09-05 12:41:14 | 64.21099 | -21.42601 | 67° | 16km/h | 23047m | -51.8m/s | -48.1°C | 0.8% | 0hPa | 0V | 08:29:00 | 00:00:00 | 00:00:00 | |
| DL9RDZ-1 | 2026-09-05 12:41:04 | 64.21075 | -21.42711 | 61° | 26km/h | 23631m | -55.6m/s | -47.2°C | 0.8% | 0hPa | 0V | 08:29:00 | 00:00:00 | 00:00:00 | |
| DL9RDZ-1 | 2026-09-05 12:40:52 | 64.21029 | -21.42864 | 47° | 33km/h | 24254m | -57.3m/s | -45.8°C | 0.7% | 0hPa | 0V | 08:29:00 | 00:00:00 | 00:00:00 | |
| DL9RDZ-1 | 2026-09-05 12:40:42 | 64.20972 | -21.42986 | 46° | 33km/h | 24838m | -60.2m/s | -46.7°C | 0.7% | 0hPa | 0V | 08:29:00 | 00:00:00 | 00:00:00 | |
| DL9RDZ-1 | 2026-09-05 12:40:32 | 64.20918 | -21.43166 | 60° | 33km/h | 25514m | -62.9m/s | -46.8°C | 0.7% | 0hPa | 0V | 08:29:00 | 00:00:00 | 00:00:00 | |
| DL9RDZ-1 | 2026-09-05 12:40:21 | 64.20870 | -21.43307 | 43° | 27km/h | 26151m | -65.5m/s | -45.4°C | 0.6% | 0hPa | 0V | 00:00:00 | 00:00:00 | 00:00:00 | |
| DL9RDZ-1 | 2026-09-05 12:40:10 | 64.20830 | -21.43432 | 61° | 20km/h | 26861m | -67.8m/s | -46.5°C | 0.7% | 0hPa | 0V | 00:00:00 | 00:00:00 | 00:00:00 | |
| DL9RDZ-1 | 2026-09-05 12:39:59 | 64.20804 | -21.43560 | 65° | 24km/h | 27604m | -67.1m/s | -45.5°C | 0.6% | 0hPa | 0V | 00:00:00 | 00:00:00 | 00:00:00 | |
| DL9RDZ-1 | 2026-09-05 12:39:48 | 64.20762 | -21.43729 | 70° | 29km/h | 28237m | -41.1m/s | -47.4°C | 0.7% | 0hPa | 0V | 00:00:00 | 00:00:00 | 00:00:00 | |
| DL9RDZ-1 | 2026-09-05 12:39:38 | 64.20741 | -21.43866 | 73° | 31km/h | 28357m | 5.7m/s | -47.9°C | 0.8% | 0hPa | 0V | 00:00:00 | 00:00:00 | 00:00:00 | |
| DL9RDZ-1 | 2026-09-05 12:39:28 | 64.20718 | -21.44043 | 59° | 26km/h | 28296m | 5.6m/s | -47.5°C | 0.7% | 0hPa | 0V | 00:00:00 | 00:00:00 | 00:00:00 | |
| DL9RDZ-1 | 2026-09-05 12:39:18 | 64.20682 | -21.44223 | 76° | 38km/h | 28232m | 5.4m/s | -47.6°C | 0.7% | 0hPa | 0V | 00:00:00 | 00:00:00 | 00:00:00 | |
| DL9RDZ-1 | 2026-09-05 12:39:06 | 64.20630 | -21.44388 | 70° | 33km/h | 28168m | 5.9m/s | -47.8°C | 0.8% | 0hPa | 0V | 00:00:00 | 00:00:00 | 00:00:00 | |
| DL9RDZ-1 | 2026-09-05 12:38:55 | 64.20564 | -21.44563 | 45° | 37km/h | 28104m | 6.6m/s | -47.3°C | 0.7% | 0hPa | 0V | 00:00:00 | 00:00:00 | 00:00:00 | |
| DL9RDZ-1 | 2026-09-05 12:38:44 | 64.20503 | -21.44711 | 35° | 40km/h | 28040m | 6.1m/s | -47.2°C | 0.7% | 0hPa | 0V | 00:00:00 | 00:00:00 | 00:00:00 | |
| DL9RDZ-1 | 2026-09-05 12:38:34 | 64.20451 | -21.44843 | 56° | 26km/h | 27981m | 6.1m/s | -47.0°C | 0.7% | 0hPa | 0V | 00:00:00 | 00:00:00 | 00:00:00 | |
| DL9RDZ-1 | 2026-09-05 12:38:23 | 64.20415 | -21.44963 | 79° | 22km/h | 27917m | 5.7m/s | -46.9°C | 0.7% | 0hPa | 0V | 00:00:00 | 00:00:00 | 00:00:00 | |
| DL9RDZ-1 | 2026-09-05 12:38:13 | 64.20389 | -21.45088 | 72° | 18km/h | 27860m | 4.9m/s | -46.6°C | 0.7% | 0hPa | 0V | 00:00:00 | 00:00:00 | 00:00:00 | |
| DL9RDZ-1 | 2026-09-05 12:38:03 | 64.20373 | -21.45199 | 47° | 20km/h | 27798m | 4.5m/s | -46.4°C | 0.7% | 0hPa | 0V | 00:00:00 | 00:00:00 | 00:00:00 | |
| DL9RDZ-1 | 2026-09-05 12:37:52 | 64.20373 | -21.45290 | 81° | 16km/h | 27735m | 6.4m/s | -46.4°C | 0.7% | 0hPa | 0V | 00:00:00 | 00:00:00 | 00:00:00 | |
| DL9RDZ-1 | 2026-09-05 12:37:40 | 64.20367 | -21.45400 | 126° | 22km/h | 27672m | 4.9m/s | -46.6°C | 0.7% | 0hPa | 0V | 00:00:00 | 00:00:00 | 00:00:00 | |
| DL9RDZ-1 | 2026-09-05 12:37:30 | 64.20374 | -21.45507 | 84° | 22km/h | 27617m | 5.8m/s | -46.5°C | 0.7% | 0hPa | 0V | 00:00:00 | 00:00:00 | 00:00:00 | |
| DL9RDZ-1 | 2026-09-05 12:37:09 | 64.20356 | -21.45703 | 69° | 16km/h | 27498m | 5.5m/s | -46.3°C | 0.7% | 0hPa | 0V | 00:00:00 | 00:00:00 | 00:00:00 | |
| DL9RDZ-1 | 2026-09-05 12:36:58 | 64.20328 | -21.45769 | 63° | 9km/h | 27438m | 4.5m/s | -46.5°C | 0.7% | 0hPa | 0V | 00:00:00 | 00:00:00 | 00:00:00 | |
| DL9RDZ-1 | 2026-09-05 12:36:49 | 64.20304 | -21.45878 | 49° | 22km/h | 27380m | 4.5m/s | -46.7°C | 0.7% | 0hPa | 0V | 00:00:00 | 00:00:00 | 00:00:00 | |
| DL9RDZ-1 | 2026-09-05 12:36:38 | 64.20277 | -21.45984 | 60° | 27km/h | 27323m | 5.3m/s | -46.9°C | 0.7% | 0hPa | 0V | 00:00:00 | 00:00:00 | 00:00:00 | |
| DL9RDZ-1 | 2026-09-05 12:36:28 | 64.20237 | -21.46114 | 64° | 27km/h | 27265m | 4.8m/s | -47.0°C | 0.7% | 0hPa | 0V | 00:00:00 | 00:00:00 | 00:00:00 | |
| DL9RDZ-1 | 2026-09-05 12:36:18 | 64.20197 | -21.46256 | 52° | 24km/h | 27202m | 6.0m/s | -47.1°C | 0.7% | 0hPa | 0V | 00:00:00 | 00:00:00 | 00:00:00 | |
| DL9RDZ-1 | 2026-09-05 12:36:06 | 64.20148 | -21.46365 | 50° | 38km/h | 27138m | 6.3m/s | -47.2°C | 0.7% | 0hPa | 0V | 00:00:00 | 00:00:00 | 00:00:00 | |
| DL9RDZ-1 | 2026-09-05 12:35:56 | 64.20088 | -21.46478 | 22° | 22km/h | 27081m | 5.5m/s | -47.1°C | 0.7% | 0hPa | 0V | 00:00:00 | 00:00:00 | 00:00:00 | |
| DL9RDZ-1 | 2026-09-05 12:35:47 | 64.20030 | -21.46595 | 59° | 35km/h | 27021m | 5.1m/s | -47.1°C | 0.7% | 0hPa | 0V | 00:00:00 | 00:00:00 | 00:00:00 | |
| DL9RDZ-1 | 2026-09-05 12:35:36 | 64.19977 | -21.46699 | 49° | 27km/h | 26962m | 5.8m/s | -47.3°C | 0.7% | 0hPa | 0V | 00:00:00 | 00:00:00 | 00:00:00 | |
| DL9RDZ-1 | 2026-09-05 12:35:26 | 64.19936 | -21.46810 | 39° | 24km/h | 26898m | 5.5m/s | -47.4°C | 0.7% | 0hPa | 0V | 00:00:00 | 00:00:00 | 00:00:00 | |
| DL9RDZ-1 | 2026-09-05 12:35:14 | 64.19913 | -21.46938 | 66° | 18km/h | 26831m | 6.6m/s | -47.4°C | 0.7% | 0hPa | 0V | 00:00:00 | 00:00:00 | 00:00:00 | |
| DL9RDZ-1 | 2026-09-05 12:35:04 | 64.19881 | -21.47076 | 69° | 27km/h | 26766m | 5.5m/s | -47.5°C | 0.7% | 0hPa | 0V | 00:00:00 | 00:00:00 | 00:00:00 | |
| DL9RDZ-1 | 2026-09-05 12:34:53 | 64.19850 | -21.47212 | 62° | 31km/h | 26708m | 6.7m/s | -47.4°C | 0.7% | 0hPa | 0V | 00:00:00 | 00:00:00 | 00:00:00 | |
| DL9RDZ-1 | 2026-09-05 12:34:42 | 64.19788 | -21.47356 | 51° | 31km/h | 26642m | 4.7m/s | -47.3°C | 0.7% | 0hPa | 0V | 00:00:00 | 00:00:00 | 00:00:00 | |
| DL9RDZ-1 | 2026-09-05 12:34:32 | 64.19732 | -21.47521 | 49° | 40km/h | 26583m | 5.9m/s | -47.1°C | 0.7% | 0hPa | 0V | 00:00:00 | 00:00:00 | 00:00:00 | |
| DL9RDZ-1 | 2026-09-05 12:34:21 | 64.19653 | -21.47684 | 42° | 38km/h | 26520m | 5.4m/s | -46.9°C | 0.7% | 0hPa | 0V | 00:00:00 | 00:00:00 | 00:00:00 | |
| DL9RDZ-1 | 2026-09-05 12:34:11 | 64.19585 | -21.47860 | 47° | 35km/h | 26455m | 6.2m/s | -47.2°C | 0.8% | 0hPa | 0V | 00:00:00 | 00:00:00 | 00:00:00 | |
| DL9RDZ-1 | 2026-09-05 12:34:00 | 64.19527 | -21.48029 | 42° | 35km/h | 26396m | 5.9m/s | -47.5°C | 0.7% | 0hPa | 0V | 00:00:00 | 00:00:00 | 00:00:00 | |
| DL9RDZ-1 | 2026-09-05 12:33:51 | 64.19475 | -21.48147 | 46° | 27km/h | 26337m | 4.2m/s | -47.5°C | 0.8% | 0hPa | 0V | 00:00:00 | 00:00:00 | 00:00:00 | |
| DL9RDZ-1 | 2026-09-05 12:33:39 | 64.19400 | -21.48240 | 32° | 26km/h | 26276m | 6.1m/s | -47.2°C | 0.8% | 0hPa | 0V | 00:00:00 | 00:00:00 | 00:00:00 | |
| DL9RDZ-1 | 2026-09-05 12:33:29 | 64.19334 | -21.48324 | 34° | 29km/h | 26213m | 4.9m/s | -47.0°C | 0.7% | 0hPa | 0V | 00:00:00 | 00:00:00 | 00:00:00 | |
| DL9RDZ-1 | 2026-09-05 12:33:17 | 64.19282 | -21.48415 | 46° | 29km/h | 26153m | 6.3m/s | -47.3°C | 0.7% | 0hPa | 0V | 00:00:00 | 00:00:00 | 00:00:00 | |
| DL9RDZ-1 | 2026-09-05 12:33:06 | 64.19247 | -21.48558 | 54° | 26km/h | 26094m | 5.4m/s | -47.4°C | 0.7% | 0hPa | 0V | 00:00:00 | 00:00:00 | 00:00:00 | |
| DL9RDZ-1 | 2026-09-05 12:32:56 | 64.19208 | -21.48699 | 62° | 29km/h | 26040m | 5.2m/s | -47.9°C | 0.8% | 0hPa | 0V | 00:00:00 | 00:00:00 | 00:00:00 | |
| DL9RDZ-1 | 2026-09-05 12:32:46 | 64.19188 | -21.48895 | 82° | 27km/h | 25981m | 5.5m/s | -47.9°C | 0.8% | 0hPa | 0V | 00:00:00 | 00:00:00 | 00:00:00 | |
| DL9RDZ-1 | 2026-09-05 12:32:36 | 64.19169 | -21.49072 | 79° | 31km/h | 25928m | 6.1m/s | -48.0°C | 0.8% | 0hPa | 0V | 00:00:00 | 00:00:00 | 00:00:00 | |
| DL9RDZ-1 | 2026-09-05 12:32:25 | 64.19151 | -21.49277 | 74° | 33km/h | 25871m | 6.3m/s | -48.1°C | 0.8% | 0hPa | 0V | 00:00:00 | 00:00:00 | 00:00:00 | |
| DL9RDZ-1 | 2026-09-05 12:32:14 | 64.19109 | -21.49489 | 68° | 44km/h | 25810m | 5.2m/s | -48.1°C | 0.8% | 0hPa | 0V | 00:00:00 | 00:00:00 | 00:00:00 | |
| DL9RDZ-1 | 2026-09-05 12:32:04 | 64.19070 | -21.49671 | 61° | 44km/h | 25753m | 5.5m/s | -48.2°C | 0.8% | 0hPa | 0V | 00:00:00 | 00:00:00 | 00:00:00 | |
| DL9RDZ-1 | 2026-09-05 12:31:55 | 64.19019 | -21.49863 | 50° | 29km/h | 25699m | 4.7m/s | -48.0°C | 0.8% | 0hPa | 0V | 00:00:00 | 00:00:00 | 00:00:00 | |
| DL9RDZ-1 | 2026-09-05 12:31:43 | 64.18957 | -21.50090 | 67° | 35km/h | 25637m | 6.0m/s | -47.9°C | 0.8% | 0hPa | 0V | 00:00:00 | 00:00:00 | 00:00:00 | |
| DL9RDZ-1 | 2026-09-05 12:31:32 | 64.18903 | -21.50296 | 62° | 46km/h | 25576m | 6.3m/s | -47.9°C | 0.8% | 0hPa | 0V | 00:00:00 | 00:00:00 | 00:00:00 | |
| DL9RDZ-1 | 2026-09-05 12:31:22 | 64.18868 | -21.50470 | 64° | 31km/h | 25519m | 6.5m/s | -47.8°C | 0.8% | 0hPa | 0V | 00:00:00 | 00:00:00 | 00:00:00 | |
| DL9RDZ-1 | 2026-09-05 12:31:11 | 64.18819 | -21.50672 | 63° | 31km/h | 25459m | 4.9m/s | -47.7°C | 0.8% | 0hPa | 0V | 00:00:00 | 00:00:00 | 00:00:00 | |
| DL9RDZ-1 | 2026-09-05 12:31:01 | 64.18763 | -21.50873 | 50° | 40km/h | 25398m | 4.9m/s | -47.8°C | 0.8% | 0hPa | 0V | 00:00:00 | 00:00:00 | 00:00:00 | |
| DL9RDZ-1 | 2026-09-05 12:30:50 | 64.18706 | -21.51032 | 53° | 38km/h | 25341m | 6.6m/s | -47.6°C | 0.8% | 0hPa | 0V | 00:00:00 | 00:00:00 | 00:00:00 | |
| DL9RDZ-1 | 2026-09-05 12:30:40 | 64.18646 | -21.51155 | 50° | 26km/h | 25284m | 5.6m/s | -47.4°C | 0.8% | 0hPa | 0V | 00:00:00 | 00:00:00 | 00:00:00 | |
| DL9RDZ-1 | 2026-09-05 12:30:30 | 64.18590 | -21.51293 | 41° | 33km/h | 25227m | 4.6m/s | -47.4°C | 0.8% | 0hPa | 0V | 00:00:00 | 00:00:00 | 00:00:00 | |
| DL9RDZ-1 | 2026-09-05 12:30:19 | 64.18543 | -21.51451 | 58° | 44km/h | 25163m | 5.0m/s | -47.7°C | 0.8% | 0hPa | 0V | 00:00:00 | 00:00:00 | 00:00:00 | |
| DL9RDZ-1 | 2026-09-05 12:30:08 | 64.18496 | -21.51622 | 56° | 37km/h | 25101m | 4.9m/s | -47.6°C | 0.8% | 0hPa | 0V | 00:00:00 | 00:00:00 | 00:00:00 | |
| DL9RDZ-1 | 2026-09-05 12:29:57 | 64.18432 | -21.51814 | 52° | 35km/h | 25039m | 6.3m/s | -47.3°C | 0.8% | 0hPa | 0V | 00:00:00 | 00:00:00 | 00:00:00 | |
| DL9RDZ-1 | 2026-09-05 12:29:46 | 64.18364 | -21.51986 | 50° | 35km/h | 24977m | 4.7m/s | -47.0°C | 0.7% | 0hPa | 0V | 00:00:00 | 00:00:00 | 00:00:00 | |
| DL9RDZ-1 | 2026-09-05 12:29:36 | 64.18310 | -21.52110 | 51° | 35km/h | 24913m | 5.1m/s | -47.0°C | 0.8% | 0hPa | 0V | 00:00:00 | 00:00:00 | 00:00:00 | |
| DL9RDZ-1 | 2026-09-05 12:29:24 | 64.18249 | -21.52212 | 37° | 22km/h | 24853m | 6.3m/s | -47.2°C | 0.8% | 0hPa | 0V | 00:00:00 | 00:00:00 | 00:00:00 | |
| DL9RDZ-1 | 2026-09-05 12:29:13 | 64.18198 | -21.52303 | 18° | 27km/h | 24793m | 4.0m/s | -46.9°C | 0.8% | 0hPa | 0V | 00:00:00 | 00:00:00 | 00:00:00 | |
| DL9RDZ-1 | 2026-09-05 12:29:03 | 64.18147 | -21.52376 | 29° | 26km/h | 24738m | 6.0m/s | -46.8°C | 0.8% | 0hPa | 0V | 00:00:00 | 00:00:00 | 00:00:00 | |
| DL9RDZ-1 | 2026-09-05 12:28:52 | 64.18083 | -21.52409 | 21° | 24km/h | 24679m | 5.3m/s | -46.5°C | 0.8% | 0hPa | 0V | 00:00:00 | 00:00:00 | 00:00:00 | |
| DL9RDZ-1 | 2026-09-05 12:28:42 | 64.18017 | -21.52469 | 29° | 24km/h | 24618m | 6.0m/s | -46.4°C | 0.7% | 0hPa | 0V | 00:00:00 | 00:00:00 | 00:00:00 | |
| DL9RDZ-1 | 2026-09-05 12:28:31 | 64.17959 | -21.52558 | 35° | 27km/h | 24564m | 4.5m/s | -46.3°C | 0.7% | 0hPa | 0V | 00:00:00 | 00:00:00 | 00:00:00 | |
| DL9RDZ-1 | 2026-09-05 12:28:20 | 64.17888 | -21.52686 | 41° | 33km/h | 24507m | 4.7m/s | -46.3°C | 0.8% | 0hPa | 0V | 00:00:00 | 00:00:00 | 00:00:00 | |
| DL9RDZ-1 | 2026-09-05 12:28:09 | 64.17820 | -21.52832 | 43° | 37km/h | 24450m | 6.2m/s | -46.3°C | 0.7% | 0hPa | 0V | 00:00:00 | 00:00:00 | 00:00:00 | |
| DL9RDZ-1 | 2026-09-05 12:28:00 | 64.17765 | -21.52969 | 48° | 35km/h | 24398m | 5.5m/s | -46.6°C | 0.8% | 0hPa | 0V | 00:00:00 | 00:00:00 | 00:00:00 | |
| DL9RDZ-1 | 2026-09-05 12:27:49 | 64.17708 | -21.53106 | 46° | 26km/h | 24341m | 5.5m/s | -46.7°C | 0.8% | 0hPa | 0V | 00:00:00 | 00:00:00 | 00:00:00 | |
| DL9RDZ-1 | 2026-09-05 12:27:37 | 64.17667 | -21.53253 | 56° | 26km/h | 24282m | 4.9m/s | -46.6°C | 0.8% | 0hPa | 0V | 00:00:00 | 00:00:00 | 00:00:00 | |
| DL9RDZ-1 | 2026-09-05 12:27:26 | 64.17628 | -21.53395 | 71° | 26km/h | 24224m | 5.2m/s | -46.4°C | 0.8% | 0hPa | 0V | 00:00:00 | 00:00:00 | 00:00:00 | |
| DL9RDZ-1 | 2026-09-05 12:27:15 | 64.17583 | -21.53571 | 55° | 29km/h | 24164m | 5.5m/s | -46.2°C | 0.8% | 0hPa | 0V | 00:00:00 | 00:00:00 | 00:00:00 | |
| DL9RDZ-1 | 2026-09-05 12:27:05 | 64.17553 | -21.53740 | 80° | 35km/h | 24110m | 4.8m/s | -46.3°C | 0.8% | 0hPa | 0V | 00:00:00 | 00:00:00 | 00:00:00 | |
| DL9RDZ-1 | 2026-09-05 12:26:54 | 64.17528 | -21.53926 | 77° | 38km/h | 24051m | 4.6m/s | -46.5°C | 0.8% | 0hPa | 0V | 00:00:00 | 00:00:00 | 00:00:00 | |
| DL9RDZ-1 | 2026-09-05 12:26:43 | 64.17508 | -21.54134 | 76° | 33km/h | 23992m | 5.4m/s | -46.5°C | 0.8% | 0hPa | 0V | 00:00:00 | 00:00:00 | 00:00:00 | |
| DL9RDZ-1 | 2026-09-05 12:26:33 | 64.17486 | -21.54308 | 65° | 24km/h | 23936m | 5.0m/s | -46.6°C | 0.8% | 0hPa | 0V | 00:00:00 | 00:00:00 | 00:00:00 | |
| DL9RDZ-1 | 2026-09-05 12:26:23 | 64.17450 | -21.54457 | 48° | 22km/h | 23873m | 6.4m/s | -47.0°C | 0.8% | 0hPa | 0V | 00:00:00 | 00:00:00 | 00:00:00 | |
| DL9RDZ-1 | 2026-09-05 12:26:11 | 64.17422 | -21.54568 | 67° | 27km/h | 23807m | 6.0m/s | -47.4°C | 0.8% | 0hPa | 0V | 00:00:00 | 00:00:00 | 00:00:00 | |
| DL9RDZ-1 | 2026-09-05 12:26:00 | 64.17393 | -21.54702 | 86° | 24km/h | 23741m | 5.6m/s | -47.9°C | 0.8% | 0hPa | 0V | 00:00:00 | 00:00:00 | 00:00:00 | |
| DL9RDZ-1 | 2026-09-05 12:25:51 | 64.17394 | -21.54837 | 91° | 31km/h | 23679m | 6.6m/s | -48.1°C | 0.8% | 0hPa | 0V | 00:00:00 | 00:00:00 | 00:00:00 | |
| DL9RDZ-1 | 2026-09-05 12:25:39 | 64.17395 | -21.55026 | 99° | 29km/h | 23613m | 5.5m/s | -48.8°C | 0.9% | 0hPa | 0V | 00:00:00 | 00:00:00 | 00:00:00 | |
| DL9RDZ-1 | 2026-09-05 12:25:29 | 64.17389 | -21.55196 | 81° | 22km/h | 23551m | 6.3m/s | -49.2°C | 0.9% | 0hPa | 0V | 00:00:00 | 00:00:00 | 00:00:00 | |
| DL9RDZ-1 | 2026-09-05 12:25:18 | 64.17382 | -21.55336 | 84° | 18km/h | 23482m | 6.3m/s | -49.5°C | 0.9% | 0hPa | 0V | 00:00:00 | 00:00:00 | 00:00:00 | |
| DL9RDZ-1 | 2026-09-05 12:25:07 | 64.17370 | -21.55448 | 69° | 24km/h | 23414m | 7.2m/s | -49.5°C | 0.9% | 0hPa | 0V | 00:00:00 | 00:00:00 | 00:00:00 | |
| DL9RDZ-1 | 2026-09-05 12:24:57 | 64.17358 | -21.55577 | 90° | 16km/h | 23348m | 5.8m/s | -49.3°C | 0.9% | 0hPa | 0V | 00:00:00 | 00:00:00 | 00:00:00 | |
| DL9RDZ-1 | 2026-09-05 12:24:47 | 64.17368 | -21.55640 | 124° | 15km/h | 23289m | 6.9m/s | -49.1°C | 0.9% | 0hPa | 0V | 00:00:00 | 00:00:00 | 00:00:00 | |
| DL9RDZ-1 | 2026-09-05 12:24:36 | 64.17373 | -21.55703 | 93° | 9km/h | 23232m | 4.8m/s | -48.9°C | 0.9% | 0hPa | 0V | 00:00:00 | 00:00:00 | 00:00:00 | |
| DL9RDZ-1 | 2026-09-05 12:24:25 | 64.17381 | -21.55798 | 100° | 16km/h | 23172m | 5.0m/s | -48.7°C | 0.9% | 0hPa | 0V | 00:00:00 | 00:00:00 | 00:00:00 | |
| DL9RDZ-1 | 2026-09-05 12:24:14 | 64.17384 | -21.55929 | 93° | 24km/h | 23113m | 5.9m/s | -48.5°C | 0.9% | 0hPa | 0V | 00:00:00 | 00:00:00 | 00:00:00 | |
| DL9RDZ-1 | 2026-09-05 12:24:04 | 64.17372 | -21.56082 | 85° | 31km/h | 23059m | 4.2m/s | -48.2°C | 0.9% | 0hPa | 0V | 00:00:00 | 00:00:00 | 00:00:00 | |
| DL9RDZ-1 | 2026-09-05 12:23:55 | 64.17359 | -21.56222 | 78° | 27km/h | 23008m | 4.1m/s | -48.0°C | 0.9% | 0hPa | 0V | 00:00:00 | 00:00:00 | 00:00:00 | |
| DL9RDZ-1 | 2026-09-05 12:23:43 | 64.17347 | -21.56380 | 95° | 27km/h | 22953m | 4.8m/s | -48.4°C | 0.9% | 0hPa | 0V | 00:00:00 | 00:00:00 | 00:00:00 | |
| DL9RDZ-1 | 2026-09-05 12:23:33 | 64.17348 | -21.56542 | 96° | 29km/h | 22906m | 4.8m/s | -48.2°C | 0.9% | 0hPa | 0V | 00:00:00 | 00:00:00 | 00:00:00 | |
| DL9RDZ-1 | 2026-09-05 12:23:23 | 64.17347 | -21.56710 | 79° | 31km/h | 22857m | 5.2m/s | -48.1°C | 0.8% | 0hPa | 0V | 00:00:00 | 00:00:00 | 00:00:00 | |
| DL9RDZ-1 | 2026-09-05 12:23:13 | 64.17339 | -21.56894 | 82° | 24km/h | 22802m | 6.1m/s | -48.5°C | 0.9% | 0hPa | 0V | 00:00:00 | 00:00:00 | 00:00:00 | |
| DL9RDZ-1 | 2026-09-05 12:23:01 | 64.17325 | -21.57064 | 86° | 31km/h | 22748m | 5.3m/s | -49.1°C | 0.9% | 0hPa | 0V | 00:00:00 | 00:00:00 | 00:00:00 | |
| DL9RDZ-1 | 2026-09-05 12:22:51 | 64.17313 | -21.57251 | 77° | 37km/h | 22701m | 4.1m/s | -49.5°C | 1.0% | 0hPa | 0V | 00:00:00 | 00:00:00 | 00:00:00 | |
| DL9RDZ-1 | 2026-09-05 12:22:41 | 64.17291 | -21.57471 | 86° | 38km/h | 22647m | 5.3m/s | -49.6°C | 0.9% | 0hPa | 0V | 00:00:00 | 00:00:00 | 00:00:00 | |
| DL9RDZ-1 | 2026-09-05 12:22:30 | 64.17264 | -21.57707 | 84° | 40km/h | 22589m | 5.5m/s | -49.6°C | 0.9% | 0hPa | 0V | 00:00:00 | 00:00:00 | 00:00:00 | |
| DL9RDZ-1 | 2026-09-05 12:22:19 | 64.17247 | -21.57923 | 73° | 35km/h | 22535m | 5.0m/s | -49.5°C | 0.9% | 0hPa | 0V | 00:00:00 | 00:00:00 | 00:00:00 | |
| DL9RDZ-1 | 2026-09-05 12:22:08 | 64.17229 | -21.58163 | 74° | 35km/h | 22474m | 5.0m/s | -49.4°C | 0.9% | 0hPa | 0V | 00:00:00 | 00:00:00 | 00:00:00 | |
| DL9RDZ-1 | 2026-09-05 12:21:58 | 64.17207 | -21.58373 | 83° | 35km/h | 22410m | 5.4m/s | -49.1°C | 0.9% | 0hPa | 0V | 00:00:00 | 00:00:00 | 00:00:00 | |
| DL9RDZ-1 | 2026-09-05 12:21:47 | 64.17187 | -21.58556 | 77° | 35km/h | 22352m | 6.1m/s | -49.3°C | 0.9% | 0hPa | 0V | 00:00:00 | 00:00:00 | 00:00:00 | |
| DL9RDZ-1 | 2026-09-05 12:21:37 | 64.17155 | -21.58771 | 67° | 40km/h | 22295m | 5.4m/s | -49.4°C | 0.9% | 0hPa | 0V | 00:00:00 | 00:00:00 | 00:00:00 | |
| DL9RDZ-1 | 2026-09-05 12:21:27 | 64.17106 | -21.59000 | 60° | 47km/h | 22235m | 5.3m/s | -49.1°C | 0.9% | 0hPa | 0V | 00:00:00 | 00:00:00 | 00:00:00 | |
| DL9RDZ-1 | 2026-09-05 12:21:05 | 64.16964 | -21.59464 | 60° | 44km/h | 22110m | 4.6m/s | -49.1°C | 0.9% | 0hPa | 0V | 00:00:00 | 00:00:00 | 00:00:00 | |
| DL9RDZ-1 | 2026-09-05 12:20:56 | 64.16910 | -21.59672 | 62° | 38km/h | 22052m | 6.8m/s | -49.0°C | 0.9% | 0hPa | 0V | 00:00:00 | 00:00:00 | 00:00:00 | |
| DL9RDZ-1 | 2026-09-05 12:20:45 | 64.16873 | -21.59849 | 70° | 37km/h | 21996m | 4.8m/s | -49.0°C | 0.9% | 0hPa | 0V | 00:00:00 | 00:00:00 | 00:00:00 | |
| DL9RDZ-1 | 2026-09-05 12:20:34 | 64.16840 | -21.60069 | 74° | 35km/h | 21936m | 4.5m/s | -49.5°C | 0.9% | 0hPa | 0V | 00:00:00 | 00:00:00 | 00:00:00 | |
| DL9RDZ-1 | 2026-09-05 12:20:23 | 64.16830 | -21.60292 | 82° | 40km/h | 21875m | 5.4m/s | -49.6°C | 1.0% | 0hPa | 0V | 00:00:00 | 00:00:00 | 00:00:00 | |
| DL9RDZ-1 | 2026-09-05 12:20:13 | 64.16817 | -21.60503 | 75° | 40km/h | 21821m | 4.9m/s | -49.5°C | 0.9% | 0hPa | 0V | 00:00:00 | 00:00:00 | 00:00:00 | |
| DL9RDZ-1 | 2026-09-05 12:20:02 | 64.16782 | -21.60740 | 74° | 35km/h | 21762m | 5.7m/s | -49.8°C | 1.0% | 0hPa | 0V | 00:00:00 | 00:00:00 | 00:00:00 | |
| DL9RDZ-1 | 2026-09-05 12:19:53 | 64.16736 | -21.60953 | 72° | 40km/h | 21708m | 4.0m/s | -49.8°C | 1.0% | 0hPa | 0V | 00:00:00 | 00:00:00 | 00:00:00 | |
| DL9RDZ-1 | 2026-09-05 12:19:42 | 64.16695 | -21.61156 | 69° | 38km/h | 21654m | 5.7m/s | -50.1°C | 1.0% | 0hPa | 0V | 00:00:00 | 00:00:00 | 00:00:00 | |
| DL9RDZ-1 | 2026-09-05 12:19:31 | 64.16663 | -21.61356 | 70° | 29km/h | 21596m | 5.2m/s | -49.8°C | 1.0% | 0hPa | 0V | 00:00:00 | 00:00:00 | 00:00:00 | |
| DL9RDZ-1 | 2026-09-05 12:19:21 | 64.16647 | -21.61554 | 75° | 42km/h | 21544m | 4.3m/s | -49.9°C | 1.0% | 0hPa | 0V | 00:00:00 | 00:00:00 | 00:00:00 | |
| DL9RDZ-1 | 2026-09-05 12:19:10 | 64.16640 | -21.61775 | 87° | 33km/h | 21486m | 3.7m/s | -49.9°C | 1.0% | 0hPa | 0V | 00:00:00 | 00:00:00 | 00:00:00 | |
| DL9RDZ-1 | 2026-09-05 12:19:00 | 64.16632 | -21.61988 | 86° | 35km/h | 21435m | 5.9m/s | -49.9°C | 1.0% | 0hPa | 0V | 00:00:00 | 00:00:00 | 00:00:00 | |
| DL9RDZ-1 | 2026-09-05 12:18:49 | 64.16618 | -21.62225 | 84° | 35km/h | 21381m | 4.0m/s | -49.8°C | 1.0% | 0hPa | 0V | 00:00:00 | 00:00:00 | 00:00:00 | |
| DL9RDZ-1 | 2026-09-05 12:18:39 | 64.16601 | -21.62433 | 76° | 44km/h | 21330m | 5.5m/s | -49.7°C | 1.0% | 0hPa | 0V | 00:00:00 | 00:00:00 | 00:00:00 | |
| DL9RDZ-1 | 2026-09-05 12:18:30 | 64.16574 | -21.62652 | 75° | 40km/h | 21278m | 5.4m/s | -49.9°C | 1.0% | 0hPa | 0V | 00:00:00 | 00:00:00 | 00:00:00 | |
| DL9RDZ-1 | 2026-09-05 12:18:19 | 64.16537 | -21.62918 | 70° | 37km/h | 21222m | 5.7m/s | -49.8°C | 1.0% | 0hPa | 0V | 00:00:00 | 00:00:00 | 00:00:00 | |
| DL9RDZ-1 | 2026-09-05 12:18:08 | 64.16492 | -21.63158 | 57° | 31km/h | 21167m | 4.7m/s | -49.6°C | 1.0% | 0hPa | 0V | 00:00:00 | 00:00:00 | 00:00:00 | |
| DL9RDZ-1 | 2026-09-05 12:17:57 | 64.16441 | -21.63353 | 61° | 40km/h | 21116m | 3.9m/s | -49.6°C | 1.0% | 0hPa | 0V | 00:00:00 | 00:00:00 | 00:00:00 | |
| DL9RDZ-1 | 2026-09-05 12:17:47 | 64.16403 | -21.63522 | 60° | 37km/h | 21062m | 4.8m/s | -49.7°C | 1.0% | 0hPa | 0V | 00:00:00 | 00:00:00 | 00:00:00 | |
| DL9RDZ-1 | 2026-09-05 12:17:37 | 64.16363 | -21.63699 | 57° | 35km/h | 21010m | 6.2m/s | -50.0°C | 1.0% | 0hPa | 0V | 00:00:00 | 00:00:00 | 00:00:00 | |
| DL9RDZ-1 | 2026-09-05 12:17:26 | 64.16303 | -21.63908 | 51° | 38km/h | 20950m | 4.4m/s | -49.8°C | 1.0% | 0hPa | 0V | 00:00:00 | 00:00:00 | 00:00:00 | |
| DL9RDZ-1 | 2026-09-05 12:17:16 | 64.16253 | -21.64096 | 67° | 42km/h | 20897m | 6.2m/s | -50.0°C | 1.0% | 0hPa | 0V | 00:00:00 | 00:00:00 | 00:00:00 | |
| DL9RDZ-1 | 2026-09-05 12:17:07 | 64.16206 | -21.64260 | 60° | 27km/h | 20843m | 4.1m/s | -49.6°C | 1.0% | 0hPa | 0V | 00:00:00 | 00:00:00 | 00:00:00 | |
| DL9RDZ-1 | 2026-09-05 12:16:55 | 64.16156 | -21.64451 | 58° | 35km/h | 20783m | 5.1m/s | -49.6°C | 1.0% | 0hPa | 0V | 00:00:00 | 00:00:00 | 00:00:00 | |
| DL9RDZ-1 | 2026-09-05 12:16:45 | 64.16110 | -21.64674 | 63° | 44km/h | 20720m | 4.9m/s | -49.7°C | 1.0% | 0hPa | 0V | 00:00:00 | 00:00:00 | 00:00:00 | |
| DL9RDZ-1 | 2026-09-05 12:16:34 | 64.16060 | -21.64894 | 72° | 38km/h | 20664m | 5.3m/s | -49.7°C | 1.0% | 0hPa | 0V | 00:00:00 | 00:00:00 | 00:00:00 | |
| DL9RDZ-1 | 2026-09-05 12:16:23 | 64.16025 | -21.65092 | 61° | 29km/h | 20600m | 6.5m/s | -49.9°C | 1.0% | 0hPa | 0V | 00:00:00 | 00:00:00 | 00:00:00 | |
| DL9RDZ-1 | 2026-09-05 12:16:12 | 64.15974 | -21.65243 | 55° | 27km/h | 20538m | 6.4m/s | -49.6°C | 1.0% | 0hPa | 0V | 00:00:00 | 00:00:00 | 00:00:00 | |
| DL9RDZ-1 | 2026-09-05 12:16:02 | 64.15936 | -21.65389 | 54° | 35km/h | 20482m | 5.7m/s | -49.6°C | 1.0% | 0hPa | 0V | 00:00:00 | 00:00:00 | 00:00:00 | |
| DL9RDZ-1 | 2026-09-05 12:15:52 | 64.15918 | -21.65554 | 73° | 35km/h | 20429m | 6.6m/s | -49.5°C | 1.0% | 0hPa | 0V | 00:00:00 | 00:00:00 | 00:00:00 | |
| DL9RDZ-1 | 2026-09-05 12:15:42 | 64.15894 | -21.65749 | 92° | 33km/h | 20376m | 4.4m/s | -49.4°C | 1.0% | 0hPa | 0V | 00:00:00 | 00:00:00 | 00:00:00 | |
| DL9RDZ-1 | 2026-09-05 12:15:22 | 64.15838 | -21.66203 | 61° | 40km/h | 20266m | 5.8m/s | -49.7°C | 1.0% | 0hPa | 0V | 00:00:00 | 00:00:00 | 00:00:00 | |
| DL9RDZ-1 | 2026-09-05 12:15:11 | 64.15802 | -21.66434 | 68° | 42km/h | 20216m | 3.6m/s | -49.6°C | 1.0% | 0hPa | 0V | 00:00:00 | 00:00:00 | 00:00:00 | |
| DL9RDZ-1 | 2026-09-05 12:15:00 | 64.15765 | -21.66658 | 84° | 47km/h | 20159m | 4.5m/s | -49.6°C | 1.0% | 0hPa | 0V | 00:00:00 | 00:00:00 | 00:00:00 | |
| DL9RDZ-1 | 2026-09-05 12:14:50 | 64.15741 | -21.66865 | 67° | 35km/h | 20108m | 5.1m/s | -49.8°C | 1.0% | 0hPa | 0V | 00:00:00 | 00:00:00 | 00:00:00 | |
| DL9RDZ-1 | 2026-09-05 12:14:39 | 64.15702 | -21.67082 | 60° | 33km/h | 20052m | 4.4m/s | -49.9°C | 1.0% | 0hPa | 0V | 00:00:00 | 00:00:00 | 00:00:00 | |
| DL9RDZ-1 | 2026-09-05 12:14:28 | 64.15669 | -21.67333 | 72° | 42km/h | 19997m | 3.9m/s | -49.6°C | 1.0% | 0hPa | 0V | 00:00:00 | 00:00:00 | 00:00:00 | |
| DL9RDZ-1 | 2026-09-05 12:14:17 | 64.15623 | -21.67567 | 65° | 44km/h | 19942m | 4.1m/s | -49.9°C | 1.1% | 0hPa | 0V | 00:00:00 | 00:00:00 | 00:00:00 | |
| DL9RDZ-1 | 2026-09-05 12:14:07 | 64.15560 | -21.67794 | 64° | 44km/h | 19886m | 5.5m/s | -49.8°C | 1.0% | 0hPa | 0V | 00:00:00 | 00:00:00 | 00:00:00 | |
| DL9RDZ-1 | 2026-09-05 12:13:45 | 64.15433 | -21.68186 | 39° | 40km/h | 19781m | 5.1m/s | -49.6°C | 1.1% | 0hPa | 0V | 00:00:00 | 00:00:00 | 00:00:00 | |
| DL9RDZ-1 | 2026-09-05 12:13:35 | 64.15370 | -21.68329 | 46° | 35km/h | 19728m | 5.9m/s | -49.5°C | 1.1% | 0hPa | 0V | 00:00:00 | 00:00:00 | 00:00:00 | |
| DL9RDZ-1 | 2026-09-05 12:13:13 | 64.15267 | -21.68603 | 57° | 24km/h | 19616m | 5.0m/s | -49.9°C | 1.1% | 0hPa | 0V | 00:00:00 | 00:00:00 | 00:00:00 | |
| DL9RDZ-1 | 2026-09-05 12:13:02 | 64.15233 | -21.68726 | 53° | 29km/h | 19559m | 4.9m/s | -49.9°C | 1.1% | 0hPa | 0V | 00:00:00 | 00:00:00 | 00:00:00 | |
| DL9RDZ-1 | 2026-09-05 12:12:51 | 64.15208 | -21.68880 | 81° | 24km/h | 19504m | 5.9m/s | -50.0°C | 1.1% | 0hPa | 0V | 00:00:00 | 00:00:00 | 00:00:00 | |
| DL9RDZ-1 | 2026-09-05 12:12:40 | 64.15188 | -21.69073 | 76° | 33km/h | 19446m | 6.3m/s | -49.8°C | 1.1% | 0hPa | 0V | 00:00:00 | 00:00:00 | 00:00:00 | |
| DL9RDZ-1 | 2026-09-05 12:12:30 | 64.15152 | -21.69309 | 69° | 42km/h | 19390m | 4.9m/s | -49.4°C | 1.0% | 0hPa | 0V | 00:00:00 | 00:00:00 | 00:00:00 | |
| DL9RDZ-1 | 2026-09-05 12:12:18 | 64.15108 | -21.69544 | 67° | 47km/h | 19334m | 5.6m/s | -49.7°C | 1.1% | 0hPa | 0V | 00:00:00 | 00:00:00 | 00:00:00 | |
| DL9RDZ-1 | 2026-09-05 12:12:08 | 64.15057 | -21.69757 | 52° | 42km/h | 19276m | 4.2m/s | -49.5°C | 1.0% | 0hPa | 0V | 00:00:00 | 00:00:00 | 00:00:00 | |
| DL9RDZ-1 | 2026-09-05 12:11:57 | 64.14996 | -21.69948 | 51° | 35km/h | 19229m | 5.0m/s | -49.6°C | 1.0% | 0hPa | 0V | 00:00:00 | 00:00:00 | 00:00:00 | |
| DL9RDZ-1 | 2026-09-05 12:11:48 | 64.14936 | -21.70103 | 54° | 37km/h | 19178m | 4.1m/s | -49.4°C | 1.1% | 0hPa | 0V | 00:00:00 | 00:00:00 | 00:00:00 | |
| DL9RDZ-1 | 2026-09-05 12:11:36 | 64.14860 | -21.70265 | 42° | 40km/h | 19125m | 4.3m/s | -49.4°C | 1.0% | 0hPa | 0V | 00:00:00 | 00:00:00 | 00:00:00 | |
| DL9RDZ-1 | 2026-09-05 12:11:25 | 64.14767 | -21.70399 | 35° | 38km/h | 19071m | 4.1m/s | -49.5°C | 1.1% | 0hPa | 0V | 00:00:00 | 00:00:00 | 00:00:00 | |
| DL9RDZ-1 | 2026-09-05 12:11:15 | 64.14696 | -21.70517 | 49° | 29km/h | 19020m | 4.0m/s | -49.3°C | 1.1% | 0hPa | 0V | 00:00:00 | 00:00:00 | 00:00:00 | |
| DL9RDZ-1 | 2026-09-05 12:11:04 | 64.14640 | -21.70622 | 46° | 24km/h | 18965m | 5.1m/s | -49.2°C | 1.1% | 0hPa | 0V | 00:00:00 | 00:00:00 | 00:00:00 | |
| DL9RDZ-1 | 2026-09-05 12:10:54 | 64.14584 | -21.70734 | 49° | 31km/h | 18909m | 4.4m/s | -49.0°C | 1.0% | 0hPa | 0V | 00:00:00 | 00:00:00 | 00:00:00 | |
| DL9RDZ-1 | 2026-09-05 12:10:43 | 64.14540 | -21.70872 | 44° | 31km/h | 18859m | 5.1m/s | -49.2°C | 1.0% | 0hPa | 0V | 00:00:00 | 00:00:00 | 00:00:00 | |
| DL9RDZ-1 | 2026-09-05 12:10:32 | 64.14489 | -21.71058 | 63° | 37km/h | 18807m | 3.5m/s | -49.0°C | 1.0% | 0hPa | 0V | 00:00:00 | 00:00:00 | 00:00:00 | |
| DL9RDZ-1 | 2026-09-05 12:10:23 | 64.14442 | -21.71232 | 61° | 33km/h | 18758m | 4.2m/s | -48.9°C | 1.0% | 0hPa | 0V | 00:00:00 | 00:00:00 | 00:00:00 | |
| DL9RDZ-1 | 2026-09-05 12:10:11 | 64.14400 | -21.71385 | 66° | 26km/h | 18702m | 4.7m/s | -48.7°C | 1.0% | 0hPa | 0V | 00:00:00 | 00:00:00 | 00:00:00 | |
| DL9RDZ-1 | 2026-09-05 12:10:01 | 64.14368 | -21.71502 | 65° | 26km/h | 18650m | 6.2m/s | -48.5°C | 1.0% | 0hPa | 0V | 00:00:00 | 00:00:00 | 00:00:00 | |
| DL9RDZ-1 | 2026-09-05 12:09:52 | 64.14348 | -21.71634 | 56° | 18km/h | 18600m | 6.0m/s | -48.4°C | 1.0% | 0hPa | 0V | 00:00:00 | 00:00:00 | 00:00:00 | |
| DL9RDZ-1 | 2026-09-05 12:09:41 | 64.14324 | -21.71764 | 87° | 24km/h | 18547m | 4.3m/s | -48.2°C | 1.0% | 0hPa | 0V | 00:00:00 | 00:00:00 | 00:00:00 | |
| DL9RDZ-1 | 2026-09-05 12:09:28 | 64.14315 | -21.71892 | 84° | 20km/h | 18482m | 6.0m/s | -48.0°C | 1.0% | 0hPa | 0V | 00:00:00 | 00:00:00 | 00:00:00 | |
| DL9RDZ-1 | 2026-09-05 12:09:18 | 64.14295 | -21.72016 | 63° | 26km/h | 18429m | 5.1m/s | -48.0°C | 1.0% | 0hPa | 0V | 00:00:00 | 00:00:00 | 00:00:00 | |
| DL9RDZ-1 | 2026-09-05 12:09:06 | 64.14262 | -21.72182 | 71° | 35km/h | 18373m | 6.0m/s | -48.2°C | 1.0% | 0hPa | 0V | 00:00:00 | 00:00:00 | 00:00:00 | |
| DL9RDZ-1 | 2026-09-05 12:08:56 | 64.14240 | -21.72346 | 70° | 33km/h | 18324m | 3.8m/s | -47.9°C | 1.0% | 0hPa | 0V | 00:00:00 | 00:00:00 | 00:00:00 | |
| DL9RDZ-1 | 2026-09-05 12:08:46 | 64.14205 | -21.72492 | 58° | 22km/h | 18267m | 4.9m/s | -47.9°C | 1.0% | 0hPa | 0V | 00:00:00 | 00:00:00 | 00:00:00 | |
| DL9RDZ-1 | 2026-09-05 12:08:35 | 64.14186 | -21.72606 | 56° | 20km/h | 18218m | 4.8m/s | -48.1°C | 1.0% | 0hPa | 0V | 00:00:00 | 00:00:00 | 00:00:00 | |
| DL9RDZ-1 | 2026-09-05 12:08:24 | 64.14171 | -21.72703 | 74° | 18km/h | 18162m | 4.8m/s | -47.8°C | 1.0% | 0hPa | 0V | 00:00:00 | 00:00:00 | 00:00:00 | |
| DL9RDZ-1 | 2026-09-05 12:08:13 | 64.14153 | -21.72832 | 90° | 27km/h | 18107m | 5.2m/s | -47.6°C | 1.0% | 0hPa | 0V | 00:00:00 | 00:00:00 | 00:00:00 | |
| DL9RDZ-1 | 2026-09-05 12:08:03 | 64.14128 | -21.72993 | 87° | 29km/h | 18051m | 4.5m/s | -47.6°C | 1.0% | 0hPa | 0V | 00:00:00 | 00:00:00 | 00:00:00 | |
| DL9RDZ-1 | 2026-09-05 12:07:52 | 64.14114 | -21.73183 | 75° | 33km/h | 18001m | 3.7m/s | -47.9°C | 1.0% | 0hPa | 0V | 00:00:00 | 00:00:00 | 00:00:00 | |
| DL9RDZ-1 | 2026-09-05 12:07:41 | 64.14081 | -21.73409 | 70° | 40km/h | 17946m | 4.9m/s | -47.8°C | 1.0% | 0hPa | 0V | 00:00:00 | 00:00:00 | 00:00:00 | |
| DL9RDZ-1 | 2026-09-05 12:07:32 | 64.14046 | -21.73611 | 68° | 46km/h | 17897m | 5.8m/s | -48.1°C | 1.0% | 0hPa | 0V | 00:00:00 | 00:00:00 | 00:00:00 | |
| DL9RDZ-1 | 2026-09-05 12:07:22 | 64.14005 | -21.73840 | 65° | 40km/h | 17849m | 5.2m/s | -48.5°C | 1.0% | 0hPa | 0V | 00:00:00 | 00:00:00 | 00:00:00 | |
| DL9RDZ-1 | 2026-09-05 12:07:10 | 64.13954 | -21.74045 | 56° | 33km/h | 17796m | 4.9m/s | -48.7°C | 1.0% | 0hPa | 0V | 00:00:00 | 00:00:00 | 00:00:00 | |
| DL9RDZ-1 | 2026-09-05 12:06:59 | 64.13908 | -21.74208 | 69° | 26km/h | 17747m | 4.3m/s | -49.1°C | 1.1% | 0hPa | 0V | 00:00:00 | 00:00:00 | 00:00:00 | |
| DL9RDZ-1 | 2026-09-05 12:06:49 | 64.13885 | -21.74325 | 64° | 26km/h | 17703m | 5.0m/s | -49.2°C | 1.1% | 0hPa | 0V | 00:00:00 | 00:00:00 | 00:00:00 | |
| DL9RDZ-1 | 2026-09-05 12:06:38 | 64.13879 | -21.74474 | 110° | 24km/h | 17649m | 4.6m/s | -49.0°C | 1.1% | 0hPa | 0V | 00:00:00 | 00:00:00 | 00:00:00 | |
| DL9RDZ-1 | 2026-09-05 12:06:28 | 64.13892 | -21.74632 | 108° | 33km/h | 17605m | 4.5m/s | -48.9°C | 1.1% | 0hPa | 0V | 00:00:00 | 00:00:00 | 00:00:00 | |
| DL9RDZ-1 | 2026-09-05 12:06:16 | 64.13911 | -21.74851 | 102° | 37km/h | 17550m | 5.3m/s | -48.6°C | 1.1% | 0hPa | 0V | 00:00:00 | 00:00:00 | 00:00:00 | |
| DL9RDZ-1 | 2026-09-05 12:05:06 | 64.13789 | -21.76698 | 69° | 38km/h | 17100m | 4.8m/s | -48.7°C | 1.1% | 0hPa | 0V | 00:00:00 | 00:00:00 | 00:00:00 | |
| DL9RDZ-1 | 2026-09-05 12:04:38 | 64.13773 | -21.76806 | 67° | 42km/h | 17078m | 5.1m/s | -49.0°C | 1.1% | 0hPa | 0V | 00:00:00 | 00:00:00 | 00:00:00 | |
| DL9RDZ-1 | 2026-09-05 12:04:26 | 64.13713 | -21.77062 | 58° | 49km/h | 17026m | 4.5m/s | -48.7°C | 1.1% | 0hPa | 0V | 00:00:00 | 00:00:00 | 00:00:00 | |
| DL9RDZ-1 | 2026-09-05 12:03:03 | 64.13306 | -21.78314 | 75° | 27km/h | 16627m | 3.8m/s | -49.5°C | 1.2% | 0hPa | 0V | 00:00:00 | 00:00:00 | 00:00:00 | |
| DL9RDZ-1 | 2026-09-05 12:02:52 | 64.13287 | -21.78510 | 82° | 31km/h | 16567m | 5.6m/s | -49.4°C | 1.1% | 0hPa | 0V | 00:00:00 | 00:00:00 | 00:00:00 | |
| DL9RDZ-1 | 2026-09-05 12:02:41 | 64.13281 | -21.78716 | 97° | 33km/h | 16514m | 3.9m/s | -49.3°C | 1.1% | 0hPa | 0V | 00:00:00 | 00:00:00 | 00:00:00 | |
| DL9RDZ-1 | 2026-09-05 12:02:30 | 64.13271 | -21.78957 | 91° | 44km/h | 16461m | 4.2m/s | -49.4°C | 1.1% | 0hPa | 0V | 00:00:00 | 00:00:00 | 00:00:00 | |
| DL9RDZ-1 | 2026-09-05 12:02:18 | 64.13264 | -21.79219 | 78° | 47km/h | 16411m | 4.1m/s | -49.6°C | 1.2% | 0hPa | 0V | 00:00:00 | 00:00:00 | 00:00:00 | |
| DL9RDZ-1 | 2026-09-05 12:02:07 | 64.13251 | -21.79511 | 80° | 44km/h | 16359m | 4.2m/s | -49.1°C | 1.2% | 0hPa | 0V | 00:00:00 | 00:00:00 | 00:00:00 | |
| DL9RDZ-1 | 2026-09-05 12:01:57 | 64.13239 | -21.79782 | 86° | 42km/h | 16307m | 5.3m/s | -48.7°C | 1.1% | 0hPa | 0V | 00:00:00 | 00:00:00 | 00:00:00 | |
| DL9RDZ-1 | 2026-09-05 12:01:45 | 64.13231 | -21.80042 | 86° | 38km/h | 16253m | 4.6m/s | -48.9°C | 1.1% | 0hPa | 0V | 00:00:00 | 00:00:00 | 00:00:00 | |
| DL9RDZ-1 | 2026-09-05 12:01:35 | 64.13238 | -21.80264 | 87° | 40km/h | 16201m | 4.5m/s | -49.0°C | 1.2% | 0hPa | 0V | 00:00:00 | 00:00:00 | 00:00:00 | |
| DL9RDZ-1 | 2026-09-05 12:01:25 | 64.13236 | -21.80496 | 74° | 40km/h | 16156m | 4.8m/s | -49.3°C | 1.2% | 0hPa | 0V | 00:00:00 | 00:00:00 | 00:00:00 | |
| DL9RDZ-1 | 2026-09-05 12:01:14 | 64.13220 | -21.80746 | 83° | 46km/h | 16108m | 4.5m/s | -49.4°C | 1.2% | 0hPa | 0V | 00:00:00 | 00:00:00 | 00:00:00 | |
| DL9RDZ-1 | 2026-09-05 12:01:00 | 64.13201 | -21.81088 | 88° | 44km/h | 16039m | 4.0m/s | -49.4°C | 1.2% | 0hPa | 0V | 00:00:00 | 00:00:00 | 00:00:00 | |
| DL9RDZ-1 | 2026-09-05 12:00:50 | 64.13190 | -21.81353 | 79° | 42km/h | 15986m | 5.0m/s | -49.3°C | 1.2% | 0hPa | 0V | 00:00:00 | 00:00:00 | 00:00:00 | |
| DL9RDZ-1 | 2026-09-05 12:00:38 | 64.13178 | -21.81604 | 81° | 40km/h | 15937m | 3.7m/s | -49.0°C | 1.2% | 0hPa | 0V | 00:00:00 | 00:00:00 | 00:00:00 | |
| DL9RDZ-1 | 2026-09-05 12:00:27 | 64.13165 | -21.81835 | 76° | 40km/h | 15886m | 4.4m/s | -48.8°C | 1.2% | 0hPa | 0V | 00:00:00 | 00:00:00 | 00:00:00 | |
| DL9RDZ-1 | 2026-09-05 11:58:54 | 64.12873 | -21.83594 | 66° | 40km/h | 15473m | 4.6m/s | -48.3°C | 1.2% | 0hPa | 0V | 00:00:00 | 00:00:00 | 00:00:00 | |
| DL9RDZ-1 | 2026-09-05 11:58:43 | 64.12823 | -21.83863 | 70° | 49km/h | 15415m | 4.7m/s | -48.3°C | 1.2% | 0hPa | 0V | 00:00:00 | 00:00:00 | 00:00:00 | |
| DL9RDZ-1 | 2026-09-05 11:58:31 | 64.12776 | -21.84170 | 66° | 49km/h | 15363m | 3.4m/s | -48.9°C | 1.2% | 0hPa | 0V | 00:00:00 | 00:00:00 | 00:00:00 | |
| DL9RDZ-1 | 2026-09-05 11:58:07 | 64.12665 | -21.84730 | 65° | 47km/h | 15250m | 4.1m/s | -49.0°C | 1.2% | 0hPa | 0V | 00:00:00 | 00:00:00 | 00:00:00 | |
| DL9RDZ-1 | 2026-09-05 11:57:42 | 64.12555 | -21.85406 | 68° | 51km/h | 15130m | 4.8m/s | -49.0°C | 1.2% | 0hPa | 0V | 00:00:00 | 00:00:00 | 00:00:00 | |
| DL9RDZ-1 | 2026-09-05 11:57:24 | 64.12470 | -21.85898 | 70° | 47km/h | 15044m | 3.9m/s | -48.7°C | 1.2% | 0hPa | 0V | 00:00:00 | 00:00:00 | 00:00:00 | |
| DL9RDZ-1 | 2026-09-05 11:57:10 | 64.12411 | -21.86262 | 68° | 53km/h | 14977m | 4.5m/s | -48.4°C | 1.2% | 0hPa | 0V | 00:00:00 | 00:00:00 | 00:00:00 | |
| DL9RDZ-1 | 2026-09-05 11:56:59 | 64.12368 | -21.86550 | 72° | 46km/h | 14923m | 4.1m/s | -48.1°C | 1.2% | 0hPa | 0V | 00:00:00 | 00:00:00 | 00:00:00 | |
| DL9RDZ-1 | 2026-09-05 11:55:43 | 64.11977 | -21.88569 | 61° | 46km/h | 14569m | 4.1m/s | -47.7°C | 1.2% | 0hPa | 0V | 00:00:00 | 00:00:00 | 00:00:00 | |
| DL9RDZ-1 | 2026-09-05 11:55:32 | 64.11925 | -21.88810 | 68° | 42km/h | 14521m | 4.8m/s | -47.6°C | 1.2% | 0hPa | 0V | 00:00:00 | 00:00:00 | 00:00:00 | |
| DL9RDZ-1 | 2026-09-05 11:55:17 | 64.11884 | -21.89128 | 72° | 44km/h | 14458m | 4.9m/s | -47.4°C | 1.2% | 0hPa | 0V | 00:00:00 | 00:00:00 | 00:00:00 | |
| DL9RDZ-1 | 2026-09-05 11:55:06 | 64.11847 | -21.89405 | 81° | 47km/h | 14411m | 3.0m/s | -47.2°C | 1.2% | 0hPa | 0V | 00:00:00 | 00:00:00 | 00:00:00 | |
| DL9RDZ-1 | 2026-09-05 11:53:39 | 64.11588 | -21.91814 | 81° | 55km/h | 14037m | 4.4m/s | -46.7°C | 1.3% | 0hPa | 0V | 00:00:00 | 00:00:00 | 00:00:00 | |
| DL9RDZ-1 | 2026-09-05 11:49:58 | 64.10440 | -21.97734 | 68° | 60km/h | 13055m | 4.0m/s | -47.2°C | 1.3% | 0hPa | 0V | 00:00:00 | 00:00:00 | 00:00:00 | |
| DL9RDZ-1 | 2026-09-05 11:49:04 | 64.10188 | -21.99230 | 74° | 47km/h | 12817m | 3.4m/s | -47.0°C | 1.4% | 0hPa | 0V | 00:00:00 | 00:00:00 | 00:00:00 | |
| DL9RDZ-1 | 2026-09-05 11:47:16 | 64.09700 | -22.02338 | 72° | 57km/h | 12361m | 4.4m/s | -46.7°C | 1.5% | 0hPa | 0V | 00:00:00 | 00:00:00 | 00:00:00 | |
| DL9RDZ-1 | 2026-09-05 11:47:06 | 64.09659 | -22.02636 | 76° | 55km/h | 12317m | 4.9m/s | -46.6°C | 1.5% | 0hPa | 0V | 00:00:00 | 00:00:00 | 00:00:00 | |
| DL9RDZ-1 | 2026-09-05 11:46:47 | 64.09556 | -22.03225 | 67° | 62km/h | 12232m | 4.0m/s | -46.8°C | 1.5% | 0hPa | 0V | 00:00:00 | 00:00:00 | 00:00:00 | |
| DL9RDZ-1 | 2026-09-05 11:46:30 | 64.09470 | -22.03816 | 80° | 62km/h | 12160m | 3.3m/s | -47.4°C | 1.6% | 0hPa | 0V | 00:00:00 | 00:00:00 | 00:00:00 | |
| DL9RDZ-1 | 2026-09-05 11:46:19 | 64.09425 | -22.04232 | 72° | 71km/h | 12112m | 4.8m/s | -47.4°C | 1.6% | 0hPa | 0V | 00:00:00 | 00:00:00 | 00:00:00 | |
| DL9RDZ-1 | 2026-09-05 11:46:08 | 64.09363 | -22.04640 | 64° | 69km/h | 12061m | 4.7m/s | -47.7°C | 1.6% | 0hPa | 0V | 00:00:00 | 00:00:00 | 00:00:00 | |
| DL9RDZ-1 | 2026-09-05 11:45:48 | 64.09225 | -22.05363 | 74° | 73km/h | 11977m | 4.0m/s | -47.5°C | 1.6% | 0hPa | 0V | 00:00:00 | 00:00:00 | 00:00:00 | |
| DL9RDZ-1 | 2026-09-05 11:45:37 | 64.09164 | -22.05794 | 74° | 73km/h | 11931m | 4.4m/s | -47.1°C | 1.5% | 0hPa | 0V | 00:00:00 | 00:00:00 | 00:00:00 | |
| DL9RDZ-1 | 2026-09-05 11:45:20 | 64.09074 | -22.06516 | 75° | 80km/h | 11855m | 4.4m/s | -47.0°C | 1.5% | 0hPa | 0V | 00:00:00 | 00:00:00 | 00:00:00 | |
| DL9RDZ-1 | 2026-09-05 11:44:50 | 64.08899 | -22.07778 | 72° | 77km/h | 11729m | 4.3m/s | -47.5°C | 1.7% | 0hPa | 0V | 00:00:00 | 00:00:00 | 00:00:00 | |
| DL9RDZ-1 | 2026-09-05 11:44:28 | 64.08742 | -22.08765 | 66° | 86km/h | 11638m | 3.9m/s | -48.1°C | 1.8% | 0hPa | 0V | 00:00:00 | 00:00:00 | 00:00:00 | |
| DL9RDZ-1 | 2026-09-05 11:44:14 | 64.08622 | -22.09358 | 63° | 77km/h | 11581m | 4.5m/s | -48.3°C | 1.8% | 0hPa | 0V | 00:00:00 | 00:00:00 | 00:00:00 | |
| DL9RDZ-1 | 2026-09-05 11:43:59 | 64.08485 | -22.09913 | 62° | 71km/h | 11520m | 3.8m/s | -48.3°C | 1.8% | 0hPa | 0V | 00:00:00 | 00:00:00 | 00:00:00 | |
| DL9RDZ-1 | 2026-09-05 11:43:46 | 64.08384 | -22.10394 | 66° | 69km/h | 11469m | 3.2m/s | -48.5°C | 1.9% | 0hPa | 0V | 00:00:00 | 00:00:00 | 00:00:00 | |
| DL9RDZ-1 | 2026-09-05 11:43:36 | 64.08321 | -22.10769 | 71° | 71km/h | 11428m | 3.4m/s | -48.5°C | 2.0% | 0hPa | 0V | 00:00:00 | 00:00:00 | 00:00:00 | |
| DL9RDZ-1 | 2026-09-05 11:43:21 | 64.08231 | -22.11376 | 74° | 77km/h | 11367m | 5.5m/s | -48.7°C | 2.0% | 0hPa | 0V | 00:00:00 | 00:00:00 | 00:00:00 | |
| DL9RDZ-1 | 2026-09-05 11:42:50 | 64.08010 | -22.12827 | 72° | 80km/h | 11230m | 3.7m/s | -48.8°C | 2.2% | 0hPa | 0V | 00:00:00 | 00:00:00 | 00:00:00 | |
| DL9RDZ-1 | 2026-09-05 11:42:39 | 64.07938 | -22.13268 | 72° | 84km/h | 11188m | 3.7m/s | -48.7°C | 2.2% | 0hPa | 0V | 00:00:00 | 00:00:00 | 00:00:00 | |
| DL9RDZ-1 | 2026-09-05 11:42:29 | 64.07873 | -22.13717 | 76° | 84km/h | 11146m | 4.3m/s | -48.8°C | 2.3% | 0hPa | 0V | 00:00:00 | 00:00:00 | 00:00:00 | |
| DL9RDZ-1 | 2026-09-05 11:41:50 | 64.07556 | -22.15498 | 65° | 84km/h | 10977m | 4.1m/s | -47.9°C | 2.3% | 0hPa | 0V | 00:00:00 | 00:00:00 | 00:00:00 | |
| DL9RDZ-1 | 2026-09-05 11:41:39 | 64.07455 | -22.15970 | 64° | 86km/h | 10930m | 4.4m/s | -47.9°C | 2.3% | 0hPa | 0V | 00:00:00 | 00:00:00 | 00:00:00 | |
| DL9RDZ-1 | 2026-09-05 11:41:28 | 64.07343 | -22.16459 | 66° | 86km/h | 10881m | 5.2m/s | -48.0°C | 2.4% | 0hPa | 0V | 00:00:00 | 00:00:00 | 00:00:00 | |
| DL9RDZ-1 | 2026-09-05 11:41:17 | 64.07239 | -22.16966 | 67° | 86km/h | 10830m | 4.1m/s | -48.0°C | 2.5% | 0hPa | 0V | 00:00:00 | 00:00:00 | 00:00:00 | |
| DL9RDZ-1 | 2026-09-05 11:41:06 | 64.07145 | -22.17443 | 66° | 84km/h | 10781m | 3.9m/s | -47.8°C | 2.5% | 0hPa | 0V | 00:00:00 | 00:00:00 | 00:00:00 | |
| DL9RDZ-1 | 2026-09-05 11:40:53 | 64.07048 | -22.17990 | 70° | 75km/h | 10727m | 4.1m/s | -47.9°C | 2.6% | 0hPa | 0V | 00:00:00 | 00:00:00 | 00:00:00 | |
| DL9RDZ-1 | 2026-09-05 11:40:42 | 64.06972 | -22.18451 | 73° | 84km/h | 10681m | 4.1m/s | -47.5°C | 2.7% | 0hPa | 0V | 00:00:00 | 00:00:00 | 00:00:00 | |
| DL9RDZ-1 | 2026-09-05 11:40:31 | 64.06896 | -22.18930 | 70° | 80km/h | 10634m | 3.8m/s | -48.0°C | 2.8% | 0hPa | 0V | 00:00:00 | 00:00:00 | 00:00:00 | |
| DL9RDZ-1 | 2026-09-05 11:40:09 | 64.06723 | -22.19966 | 71° | 95km/h | 10540m | 4.6m/s | -48.4°C | 3.5% | 0hPa | 0V | 00:00:00 | 00:00:00 | 00:00:00 | |
| DL9RDZ-1 | 2026-09-05 11:39:58 | 64.06627 | -22.20519 | 66° | 99km/h | 10495m | 3.6m/s | -48.8°C | 4.2% | 0hPa | 0V | 00:00:00 | 00:00:00 | 00:00:00 | |
| DL9RDZ-1 | 2026-09-05 11:39:48 | 64.06528 | -22.21001 | 65° | 89km/h | 10455m | 4.2m/s | -48.9°C | 4.9% | 0hPa | 0V | 00:00:00 | 00:00:00 | 00:00:00 | |
| DL9RDZ-1 | 2026-09-05 11:39:37 | 64.06409 | -22.21507 | 63° | 93km/h | 10413m | 4.6m/s | -49.2°C | 5.8% | 0hPa | 0V | 00:00:00 | 00:00:00 | 00:00:00 | |
| DL9RDZ-1 | 2026-09-05 11:39:26 | 64.06286 | -22.22041 | 61° | 91km/h | 10364m | 4.0m/s | -49.1°C | 7.0% | 0hPa | 0V | 00:00:00 | 00:00:00 | 00:00:00 | |
| DL9RDZ-1 | 2026-09-05 11:39:17 | 64.06177 | -22.22476 | 66° | 80km/h | 10320m | 6.1m/s | -49.9°C | 8.8% | 0hPa | 0V | 00:00:00 | 00:00:00 | 00:00:00 | |
| DL9RDZ-1 | 2026-09-05 11:39:05 | 64.06077 | -22.22937 | 66° | 80km/h | 10269m | 3.8m/s | -50.2°C | 10.2% | 0hPa | 0V | 00:00:00 | 00:00:00 | 00:00:00 | |
| DL9RDZ-1 | 2026-09-05 11:38:54 | 64.05984 | -22.23409 | 67° | 84km/h | 10224m | 3.7m/s | -50.3°C | 11.8% | 0hPa | 0V | 00:00:00 | 00:00:00 | 00:00:00 | |
| DL9RDZ-1 | 2026-09-05 11:38:41 | 64.05851 | -22.24013 | 64° | 88km/h | 10171m | 4.4m/s | -51.0°C | 14.1% | 0hPa | 0V | 00:00:00 | 00:00:00 | 00:00:00 | |
| DL9RDZ-1 | 2026-09-05 11:38:31 | 64.05759 | -22.24474 | 70° | 84km/h | 10128m | 5.3m/s | -51.0°C | 14.9% | 0hPa | 0V | 00:00:00 | 00:00:00 | 00:00:00 | |
| DL9RDZ-1 | 2026-09-05 11:38:21 | 64.05679 | -22.24890 | 64° | 77km/h | 10087m | 3.4m/s | -51.2°C | 16.7% | 0hPa | 0V | 00:00:00 | 00:00:00 | 00:00:00 | |
| DL9RDZ-1 | 2026-09-05 11:38:10 | 64.05583 | -22.25353 | 64° | 82km/h | 10043m | 3.7m/s | -51.4°C | 17.2% | 0hPa | 0V | 00:00:00 | 00:00:00 | 00:00:00 | |
| DL9RDZ-1 | 2026-09-05 11:38:00 | 64.05499 | -22.25780 | 68° | 80km/h | 10007m | 4.3m/s | -51.2°C | 17.1% | 0hPa | 0V | 00:00:00 | 00:00:00 | 00:00:00 | |
| DL9RDZ-1 | 2026-09-05 11:37:50 | 64.05417 | -22.26179 | 65° | 73km/h | 9965m | 5.0m/s | -50.9°C | 16.8% | 0hPa | 0V | 00:00:00 | 00:00:00 | 00:00:00 | |
| DL9RDZ-1 | 2026-09-05 11:37:29 | 64.05243 | -22.26999 | 64° | 75km/h | 9880m | 4.4m/s | -50.6°C | 19.0% | 0hPa | 0V | 00:00:00 | 00:00:00 | 00:00:00 | |
| DL9RDZ-1 | 2026-09-05 11:37:19 | 64.05164 | -22.27398 | 68° | 77km/h | 9837m | 4.4m/s | -51.2°C | 22.0% | 0hPa | 0V | 00:00:00 | 00:00:00 | 00:00:00 | |
| DL9RDZ-1 | 2026-09-05 11:37:08 | 64.05088 | -22.27834 | 70° | 71km/h | 9791m | 4.7m/s | -51.2°C | 22.9% | 0hPa | 0V | 00:00:00 | 00:00:00 | 00:00:00 | |
| DL9RDZ-1 | 2026-09-05 11:36:58 | 64.05025 | -22.28198 | 70° | 68km/h | 9751m | 4.4m/s | -51.3°C | 22.9% | 0hPa | 0V | 00:00:00 | 00:00:00 | 00:00:00 | |
| DL9RDZ-1 | 2026-09-05 11:36:48 | 64.04952 | -22.28560 | 64° | 71km/h | 9709m | 4.6m/s | -51.2°C | 23.1% | 0hPa | 0V | 00:00:00 | 00:00:00 | 00:00:00 | |
| DL9RDZ-1 | 2026-09-05 11:36:37 | 64.04871 | -22.28960 | 66° | 68km/h | 9666m | 4.8m/s | -50.9°C | 23.4% | 0hPa | 0V | 00:00:00 | 00:00:00 | 00:00:00 | |
| DL9RDZ-1 | 2026-09-05 11:36:26 | 64.04793 | -22.29340 | 66° | 64km/h | 9619m | 4.6m/s | -50.7°C | 23.0% | 0hPa | 0V | 00:00:00 | 00:00:00 | 00:00:00 | |
| DL9RDZ-1 | 2026-09-05 11:36:16 | 64.04733 | -22.29658 | 65° | 58km/h | 9577m | 4.1m/s | -50.5°C | 23.2% | 0hPa | 0V | 00:00:00 | 00:00:00 | 00:00:00 | |
| DL9RDZ-1 | 2026-09-05 11:36:05 | 64.04671 | -22.30004 | 67° | 62km/h | 9533m | 3.6m/s | -50.4°C | 23.1% | 0hPa | 0V | 00:00:00 | 00:00:00 | 00:00:00 | |
| DL9RDZ-1 | 2026-09-05 11:35:55 | 64.04615 | -22.30336 | 71° | 64km/h | 9495m | 4.0m/s | -50.3°C | 23.6% | 0hPa | 0V | 00:00:00 | 00:00:00 | 00:00:00 | |
| DL9RDZ-1 | 2026-09-05 11:35:44 | 64.04549 | -22.30719 | 67° | 66km/h | 9450m | 4.4m/s | -50.1°C | 23.1% | 0hPa | 0V | 00:00:00 | 00:00:00 | 00:00:00 | |
| DL9RDZ-1 | 2026-09-05 11:35:33 | 64.04483 | -22.31100 | 70° | 64km/h | 9405m | 3.8m/s | -50.0°C | 22.8% | 0hPa | 0V | 00:00:00 | 00:00:00 | 00:00:00 | |
| DL9RDZ-1 | 2026-09-05 11:35:23 | 64.04436 | -22.31436 | 74° | 62km/h | 9363m | 4.7m/s | -49.8°C | 21.9% | 0hPa | 0V | 00:00:00 | 00:00:00 | 00:00:00 | |
| DL9RDZ-1 | 2026-09-05 11:35:13 | 64.04383 | -22.31770 | 73° | 57km/h | 9323m | 4.0m/s | -49.5°C | 21.5% | 0hPa | 0V | 00:00:00 | 00:00:00 | 00:00:00 | |
| DL9RDZ-1 | 2026-09-05 11:35:02 | 64.04330 | -22.32133 | 69° | 64km/h | 9277m | 4.5m/s | -49.3°C | 21.8% | 0hPa | 0V | 00:00:00 | 00:00:00 | 00:00:00 | |
| DL9RDZ-1 | 2026-09-05 11:34:51 | 64.04268 | -22.32506 | 68° | 64km/h | 9231m | 5.2m/s | -49.2°C | 22.4% | 0hPa | 0V | 00:00:00 | 00:00:00 | 00:00:00 | |
| DL9RDZ-1 | 2026-09-05 11:34:41 | 64.04206 | -22.32842 | 70° | 66km/h | 9191m | 4.2m/s | -48.9°C | 23.1% | 0hPa | 0V | 00:00:00 | 00:00:00 | 00:00:00 | |
| DL9RDZ-1 | 2026-09-05 11:34:30 | 64.04134 | -22.33237 | 70° | 69km/h | 9145m | 3.8m/s | -49.0°C | 25.3% | 0hPa | 0V | 00:00:00 | 00:00:00 | 00:00:00 | |
| DL9RDZ-1 | 2026-09-05 11:34:20 | 64.04073 | -22.33602 | 68° | 66km/h | 9102m | 3.8m/s | -49.0°C | 27.2% | 0hPa | 0V | 00:00:00 | 00:00:00 | 00:00:00 | |
| DL9RDZ-1 | 2026-09-05 11:34:10 | 64.04017 | -22.33943 | 71° | 64km/h | 9057m | 3.9m/s | -48.7°C | 26.0% | 0hPa | 0V | 00:00:00 | 00:00:00 | 00:00:00 | |
| DL9RDZ-1 | 2026-09-05 11:33:59 | 64.03951 | -22.34325 | 69° | 68km/h | 9008m | 3.9m/s | -48.3°C | 24.6% | 0hPa | 0V | 00:00:00 | 00:00:00 | 00:00:00 | |
| DL9RDZ-1 | 2026-09-05 11:33:48 | 64.03878 | -22.34715 | 67° | 68km/h | 8960m | 3.4m/s | -48.1°C | 24.3% | 0hPa | 0V | 00:00:00 | 00:00:00 | 00:00:00 | |
| DL9RDZ-1 | 2026-09-05 11:33:37 | 64.03802 | -22.35098 | 67° | 69km/h | 8912m | 3.5m/s | -47.9°C | 26.4% | 0hPa | 0V | 00:00:00 | 00:00:00 | 00:00:00 | |
| DL9RDZ-1 | 2026-09-05 11:33:27 | 64.03726 | -22.35474 | 68° | 64km/h | 8869m | 4.9m/s | -47.6°C | 25.9% | 0hPa | 0V | 00:00:00 | 00:00:00 | 00:00:00 | |
| DL9RDZ-1 | 2026-09-05 11:33:15 | 64.03657 | -22.35845 | 68° | 64km/h | 8825m | 3.7m/s | -47.5°C | 30.8% | 0hPa | 0V | 00:00:00 | 00:00:00 | 00:00:00 | |
| DL9RDZ-1 | 2026-09-05 11:33:04 | 64.03593 | -22.36195 | 67° | 62km/h | 8780m | 3.4m/s | -47.5°C | 32.1% | 0hPa | 0V | 00:00:00 | 00:00:00 | 00:00:00 | |
| DL9RDZ-1 | 2026-09-05 11:32:48 | 64.03497 | -22.36710 | 70° | 60km/h | 8714m | 4.4m/s | -47.0°C | 29.1% | 0hPa | 0V | 00:00:00 | 00:00:00 | 00:00:00 | |
| DL9RDZ-1 | 2026-09-05 11:32:18 | 64.03325 | -22.37641 | 65° | 60km/h | 8595m | 3.0m/s | -46.1°C | 29.1% | 0hPa | 0V | 00:00:00 | 00:00:00 | 00:00:00 | |
| DL9RDZ-1 | 2026-09-05 11:32:08 | 64.03268 | -22.37955 | 68° | 58km/h | 8557m | 3.6m/s | -46.0°C | 28.9% | 0hPa | 0V | 00:00:00 | 00:00:00 | 00:00:00 | |
| DL9RDZ-1 | 2026-09-05 11:31:58 | 64.03215 | -22.38258 | 70° | 57km/h | 8516m | 3.6m/s | -45.6°C | 27.7% | 0hPa | 0V | 00:00:00 | 00:00:00 | 00:00:00 | |
| DL9RDZ-1 | 2026-09-05 11:31:47 | 64.03152 | -22.38601 | 69° | 57km/h | 8476m | 3.3m/s | -45.3°C | 27.8% | 0hPa | 0V | 00:00:00 | 00:00:00 | 00:00:00 | |
| DL9RDZ-1 | 2026-09-05 11:31:37 | 64.03097 | -22.38901 | 69° | 62km/h | 8437m | 4.0m/s | -45.1°C | 26.9% | 0hPa | 0V | 00:00:00 | 00:00:00 | 00:00:00 | |
| DL9RDZ-1 | 2026-09-05 11:31:27 | 64.03033 | -22.39214 | 66° | 60km/h | 8399m | 2.4m/s | -44.8°C | 27.5% | 0hPa | 0V | 00:00:00 | 00:00:00 | 00:00:00 | |
| DL9RDZ-1 | 2026-09-05 11:31:16 | 64.02971 | -22.39543 | 67° | 53km/h | 8359m | 3.3m/s | -44.5°C | 24.2% | 0hPa | 0V | 00:00:00 | 00:00:00 | 00:00:00 | |
| DL9RDZ-1 | 2026-09-05 11:31:06 | 64.02914 | -22.39847 | 66° | 58km/h | 8320m | 3.4m/s | -44.3°C | 24.4% | 0hPa | 0V | 00:00:00 | 00:00:00 | 00:00:00 | |
| DL9RDZ-1 | 2026-09-05 11:30:55 | 64.02852 | -22.40174 | 68° | 60km/h | 8274m | 3.7m/s | -44.2°C | 27.9% | 0hPa | 0V | 00:00:00 | 00:00:00 | 00:00:00 | |
| DL9RDZ-1 | 2026-09-05 11:30:34 | 64.02730 | -22.40840 | 70° | 60km/h | 8192m | 4.2m/s | -43.9°C | 36.2% | 0hPa | 0V | 00:00:00 | 00:00:00 | 00:00:00 | |
| DL9RDZ-1 | 2026-09-05 11:30:23 | 64.02663 | -22.41197 | 67° | 62km/h | 8146m | 3.7m/s | -43.6°C | 37.0% | 0hPa | 0V | 00:00:00 | 00:00:00 | 00:00:00 | |
| DL9RDZ-1 | 2026-09-05 11:29:37 | 64.02389 | -22.42751 | 66° | 62km/h | 7961m | 3.2m/s | -42.1°C | 36.4% | 0hPa | 0V | 00:00:00 | 00:00:00 | 00:00:00 | |
| DL9RDZ-1 | 2026-09-05 11:29:27 | 64.02323 | -22.43069 | 66° | 62km/h | 7922m | 3.5m/s | -41.8°C | 35.8% | 0hPa | 0V | 00:00:00 | 00:00:00 | 00:00:00 | |
| DL9RDZ-1 | 2026-09-05 11:29:18 | 64.02258 | -22.43389 | 65° | 60km/h | 7882m | 4.7m/s | -41.5°C | 36.8% | 0hPa | 0V | 00:00:00 | 00:00:00 | 00:00:00 | |
| DL9RDZ-1 | 2026-09-05 11:29:07 | 64.02193 | -22.43699 | 65° | 60km/h | 7841m | 4.0m/s | -41.2°C | 37.9% | 0hPa | 0V | 00:00:00 | 00:00:00 | 00:00:00 | |
| DL9RDZ-1 | 2026-09-05 11:28:57 | 64.02123 | -22.44007 | 63° | 60km/h | 7800m | 4.3m/s | -40.9°C | 37.6% | 0hPa | 0V | 00:00:00 | 00:00:00 | 00:00:00 | |
| DL9RDZ-1 | 2026-09-05 11:28:46 | 64.02045 | -22.44347 | 61° | 60km/h | 7753m | 4.6m/s | -40.5°C | 36.7% | 0hPa | 0V | 00:00:00 | 00:00:00 | 00:00:00 | |
| DL9RDZ-1 | 2026-09-05 11:28:36 | 64.01976 | -22.44655 | 65° | 60km/h | 7713m | 4.0m/s | -40.1°C | 36.1% | 0hPa | 0V | 00:00:00 | 00:00:00 | 00:00:00 | |
| DL9RDZ-1 | 2026-09-05 11:28:25 | 64.01901 | -22.44995 | 64° | 58km/h | 7666m | 4.1m/s | -39.7°C | 34.7% | 0hPa | 0V | 00:00:00 | 00:00:00 | 00:00:00 | |
| DL9RDZ-1 | 2026-09-05 11:28:15 | 64.01829 | -22.45329 | 64° | 58km/h | 7624m | 4.4m/s | -39.3°C | 33.3% | 0hPa | 0V | 00:00:00 | 00:00:00 | 00:00:00 | |
| DL9RDZ-1 | 2026-09-05 11:28:03 | 64.01753 | -22.45650 | 63° | 58km/h | 7576m | 4.3m/s | -38.9°C | 33.8% | 0hPa | 0V | 00:00:00 | 00:00:00 | 00:00:00 | |
| DL9RDZ-1 | 2026-09-05 11:27:52 | 64.01681 | -22.45966 | 65° | 57km/h | 7531m | 4.6m/s | -38.5°C | 32.7% | 0hPa | 0V | 00:00:00 | 00:00:00 | 00:00:00 | |
| DL9RDZ-1 | 2026-09-05 11:27:41 | 64.01608 | -22.46270 | 61° | 53km/h | 7486m | 3.7m/s | -38.2°C | 34.7% | 0hPa | 0V | 00:00:00 | 00:00:00 | 00:00:00 | |
| DL9RDZ-1 | 2026-09-05 11:27:30 | 64.01536 | -22.46568 | 64° | 53km/h | 7444m | 4.0m/s | -37.8°C | 34.5% | 0hPa | 0V | 00:00:00 | 00:00:00 | 00:00:00 | |
| DL9RDZ-1 | 2026-09-05 11:27:19 | 64.01465 | -22.46872 | 65° | 55km/h | 7397m | 4.5m/s | -37.6°C | 35.0% | 0hPa | 0V | 00:00:00 | 00:00:00 | 00:00:00 | |
| DL9RDZ-1 | 2026-09-05 11:27:08 | 64.01394 | -22.47169 | 60° | 49km/h | 7350m | 3.5m/s | -37.2°C | 34.3% | 0hPa | 0V | 00:00:00 | 00:00:00 | 00:00:00 | |
| DL9RDZ-1 | 2026-09-05 11:26:57 | 64.01327 | -22.47443 | 63° | 49km/h | 7309m | 4.9m/s | -36.9°C | 33.8% | 0hPa | 0V | 00:00:00 | 00:00:00 | 00:00:00 | |
| DL9RDZ-1 | 2026-09-05 11:26:46 | 64.01259 | -22.47722 | 60° | 51km/h | 7265m | 3.7m/s | -36.7°C | 35.0% | 0hPa | 0V | 00:00:00 | 00:00:00 | 00:00:00 | |
| DL9RDZ-1 | 2026-09-05 11:26:35 | 64.01186 | -22.48002 | 59° | 51km/h | 7221m | 4.9m/s | -36.4°C | 37.2% | 0hPa | 0V | 00:00:00 | 00:00:00 | 00:00:00 | |
| DL9RDZ-1 | 2026-09-05 11:26:25 | 64.01121 | -22.48264 | 62° | 51km/h | 7178m | 3.8m/s | -36.1°C | 38.9% | 0hPa | 0V | 00:00:00 | 00:00:00 | 00:00:00 | |
| DL9RDZ-1 | 2026-09-05 11:26:15 | 64.01057 | -22.48508 | 62° | 47km/h | 7136m | 4.0m/s | -35.8°C | 39.2% | 0hPa | 0V | 00:00:00 | 00:00:00 | 00:00:00 | |
| DL9RDZ-1 | 2026-09-05 11:26:04 | 64.00994 | -22.48771 | 64° | 47km/h | 7089m | 4.2m/s | -35.3°C | 38.5% | 0hPa | 0V | 00:00:00 | 00:00:00 | 00:00:00 | |
| DL9RDZ-1 | 2026-09-05 11:25:54 | 64.00941 | -22.49008 | 64° | 46km/h | 7046m | 3.7m/s | -35.0°C | 38.1% | 0hPa | 0V | 00:00:00 | 00:00:00 | 00:00:00 | |
| DL9RDZ-1 | 2026-09-05 11:25:43 | 64.00886 | -22.49275 | 67° | 46km/h | 7003m | 4.5m/s | -34.7°C | 36.8% | 0hPa | 0V | 00:00:00 | 00:00:00 | 00:00:00 | |
| DL9RDZ-1 | 2026-09-05 11:25:33 | 64.00840 | -22.49515 | 65° | 47km/h | 6961m | 4.6m/s | -34.3°C | 36.7% | 0hPa | 0V | 00:00:00 | 00:00:00 | 00:00:00 | |
| DL9RDZ-1 | 2026-09-05 11:25:23 | 64.00793 | -22.49747 | 63° | 44km/h | 6918m | 4.6m/s | -33.9°C | 36.5% | 0hPa | 0V | 00:00:00 | 00:00:00 | 00:00:00 | |
| DL9RDZ-1 | 2026-09-05 11:25:13 | 64.00741 | -22.49972 | 65° | 47km/h | 6875m | 3.9m/s | -33.5°C | 35.1% | 0hPa | 0V | 00:00:00 | 00:00:00 | 00:00:00 | |
| DL9RDZ-1 | 2026-09-05 11:25:03 | 64.00684 | -22.50221 | 63° | 46km/h | 6833m | 4.5m/s | -33.2°C | 32.3% | 0hPa | 0V | 00:00:00 | 00:00:00 | 00:00:00 | |
| DL9RDZ-1 | 2026-09-05 11:24:52 | 64.00625 | -22.50481 | 64° | 46km/h | 6788m | 4.1m/s | -32.8°C | 32.8% | 0hPa | 0V | 00:00:00 | 00:00:00 | 00:00:00 | |
| DL9RDZ-1 | 2026-09-05 11:24:42 | 64.00567 | -22.50706 | 61° | 47km/h | 6745m | 4.9m/s | -32.5°C | 32.6% | 0hPa | 0V | 00:00:00 | 00:00:00 | 00:00:00 | |
| DL9RDZ-1 | 2026-09-05 11:24:20 | 64.00449 | -22.51191 | 64° | 40km/h | 6648m | 5.0m/s | -31.8°C | 35.9% | 0hPa | 0V | 00:00:00 | 00:00:00 | 00:00:00 | |
| DL9RDZ-1 | 2026-09-05 11:24:10 | 64.00402 | -22.51386 | 62° | 40km/h | 6608m | 5.3m/s | -31.7°C | 37.7% | 0hPa | 0V | 00:00:00 | 00:00:00 | 00:00:00 | |
| DL9RDZ-1 | 2026-09-05 11:23:59 | 64.00342 | -22.51594 | 59° | 40km/h | 6561m | 4.7m/s | -31.3°C | 37.0% | 0hPa | 0V | 00:00:00 | 00:00:00 | 00:00:00 | |
| DL9RDZ-1 | 2026-09-05 11:23:49 | 64.00288 | -22.51799 | 60° | 40km/h | 6522m | 3.8m/s | -31.0°C | 37.0% | 0hPa | 0V | 00:00:00 | 00:00:00 | 00:00:00 | |
| DL9RDZ-1 | 2026-09-05 11:23:28 | 64.00166 | -22.52232 | 61° | 42km/h | 6436m | 4.9m/s | -30.6°C | 39.6% | 0hPa | 0V | 00:00:00 | 00:00:00 | 00:00:00 | |
| DL9RDZ-1 | 2026-09-05 11:23:17 | 64.00117 | -22.52472 | 64° | 42km/h | 6388m | 5.0m/s | -30.2°C | 39.4% | 0hPa | 0V | 00:00:00 | 00:00:00 | 00:00:00 | |
| DL9RDZ-1 | 2026-09-05 11:23:07 | 64.00072 | -22.52663 | 59° | 38km/h | 6342m | 5.3m/s | -29.9°C | 39.9% | 0hPa | 0V | 00:00:00 | 00:00:00 | 00:00:00 | |
| DL9RDZ-1 | 2026-09-05 11:22:56 | 64.00015 | -22.52860 | 57° | 38km/h | 6294m | 4.6m/s | -29.5°C | 39.6% | 0hPa | 0V | 00:00:00 | 00:00:00 | 00:00:00 | |
| DL9RDZ-1 | 2026-09-05 11:22:46 | 63.99964 | -22.53042 | 56° | 38km/h | 6253m | 3.4m/s | -29.2°C | 37.3% | 0hPa | 0V | 00:00:00 | 00:00:00 | 00:00:00 | |
| DL9RDZ-1 | 2026-09-05 11:22:36 | 63.99909 | -22.53226 | 58° | 40km/h | 6214m | 3.8m/s | -28.9°C | 38.0% | 0hPa | 0V | 00:00:00 | 00:00:00 | 00:00:00 | |
| DL9RDZ-1 | 2026-09-05 11:22:25 | 63.99851 | -22.53428 | 59° | 40km/h | 6170m | 4.8m/s | -28.6°C | 36.9% | 0hPa | 0V | 00:00:00 | 00:00:00 | 00:00:00 | |
| DL9RDZ-1 | 2026-09-05 11:22:04 | 63.99749 | -22.53804 | 58° | 37km/h | 6080m | 4.2m/s | -27.8°C | 32.9% | 0hPa | 0V | 00:00:00 | 00:00:00 | 00:00:00 | |
| DL9RDZ-1 | 2026-09-05 11:21:53 | 63.99695 | -22.53991 | 55° | 40km/h | 6028m | 2.1m/s | -27.4°C | 31.7% | 0hPa | 0V | 00:00:00 | 00:00:00 | 00:00:00 | |
| DL9RDZ-1 | 2026-09-05 11:21:42 | 63.99636 | -22.54176 | 51° | 33km/h | 5984m | 4.0m/s | -27.0°C | 31.4% | 0hPa | 0V | 00:00:00 | 00:00:00 | 00:00:00 | |
| DL9RDZ-1 | 2026-09-05 11:21:31 | 63.99588 | -22.54349 | 57° | 33km/h | 5936m | 6.2m/s | -26.7°C | 31.9% | 0hPa | 0V | 00:00:00 | 00:00:00 | 00:00:00 | |
| DL9RDZ-1 | 2026-09-05 11:21:20 | 63.99545 | -22.54534 | 68° | 31km/h | 5883m | 4.3m/s | -26.2°C | 29.2% | 0hPa | 0V | 00:00:00 | 00:00:00 | 00:00:00 | |
| DL9RDZ-1 | 2026-09-05 11:21:09 | 63.99503 | -22.54718 | 64° | 31km/h | 5837m | 5.2m/s | -25.8°C | 26.4% | 0hPa | 0V | 00:00:00 | 00:00:00 | 00:00:00 | |
| DL9RDZ-1 | 2026-09-05 11:20:58 | 63.99462 | -22.54885 | 68° | 33km/h | 5789m | 3.2m/s | -25.4°C | 25.2% | 0hPa | 0V | 00:00:00 | 00:00:00 | 00:00:00 | |
| DL9RDZ-1 | 2026-09-05 11:20:48 | 63.99424 | -22.55040 | 60° | 29km/h | 5742m | 3.4m/s | -25.0°C | 23.4% | 0hPa | 0V | 00:00:00 | 00:00:00 | 00:00:00 | |
| DL9RDZ-1 | 2026-09-05 11:20:37 | 63.99389 | -22.55199 | 64° | 29km/h | 5694m | 4.2m/s | -24.7°C | 22.3% | 0hPa | 0V | 00:00:00 | 00:00:00 | 00:00:00 | |
| DL9RDZ-1 | 2026-09-05 11:20:27 | 63.99361 | -22.55350 | 66° | 27km/h | 5646m | 3.3m/s | -24.2°C | 21.4% | 0hPa | 0V | 00:00:00 | 00:00:00 | 00:00:00 | |
| DL9RDZ-1 | 2026-09-05 11:20:16 | 63.99331 | -22.55517 | 66° | 31km/h | 5597m | 4.4m/s | -23.8°C | 18.4% | 0hPa | 0V | 00:00:00 | 00:00:00 | 00:00:00 | |
| DL9RDZ-1 | 2026-09-05 11:20:05 | 63.99299 | -22.55689 | 71° | 31km/h | 5549m | 4.3m/s | -23.4°C | 17.3% | 0hPa | 0V | 00:00:00 | 00:00:00 | 00:00:00 | |
| DL9RDZ-1 | 2026-09-05 11:19:54 | 63.99259 | -22.55842 | 58° | 33km/h | 5504m | 4.6m/s | -23.1°C | 17.7% | 0hPa | 0V | 00:00:00 | 00:00:00 | 00:00:00 | |
| DL9RDZ-1 | 2026-09-05 11:19:44 | 63.99221 | -22.56001 | 70° | 31km/h | 5456m | 4.0m/s | -22.8°C | 17.0% | 0hPa | 0V | 00:00:00 | 00:00:00 | 00:00:00 | |
| DL9RDZ-1 | 2026-09-05 11:19:34 | 63.99188 | -22.56152 | 65° | 29km/h | 5412m | 5.4m/s | -22.5°C | 16.4% | 0hPa | 0V | 00:00:00 | 00:00:00 | 00:00:00 | |
| DL9RDZ-1 | 2026-09-05 11:19:23 | 63.99163 | -22.56319 | 72° | 27km/h | 5364m | 4.9m/s | -22.0°C | 15.6% | 0hPa | 0V | 00:00:00 | 00:00:00 | 00:00:00 | |
| DL9RDZ-1 | 2026-09-05 11:19:12 | 63.99137 | -22.56487 | 70° | 31km/h | 5314m | 4.5m/s | -21.5°C | 14.9% | 0hPa | 0V | 00:00:00 | 00:00:00 | 00:00:00 | |
| DL9RDZ-1 | 2026-09-05 11:19:01 | 63.99109 | -22.56677 | 76° | 29km/h | 5264m | 4.0m/s | -21.1°C | 15.0% | 0hPa | 0V | 00:00:00 | 00:00:00 | 00:00:00 | |
| DL9RDZ-1 | 2026-09-05 11:18:51 | 63.99088 | -22.56841 | 74° | 27km/h | 5221m | 5.0m/s | -20.8°C | 14.9% | 0hPa | 0V | 00:00:00 | 00:00:00 | 00:00:00 | |
| DL9RDZ-1 | 2026-09-05 11:18:40 | 63.99060 | -22.57019 | 74° | 33km/h | 5173m | 5.0m/s | -20.4°C | 14.9% | 0hPa | 0V | 00:00:00 | 00:00:00 | 00:00:00 | |
| DL9RDZ-1 | 2026-09-05 11:18:31 | 63.99032 | -22.57173 | 70° | 27km/h | 5119m | 5.7m/s | -20.0°C | 14.8% | 0hPa | 0V | 00:00:00 | 00:00:00 | 00:00:00 | |
| DL9RDZ-1 | 2026-09-05 11:18:19 | 63.99004 | -22.57342 | 78° | 29km/h | 5070m | 3.0m/s | -19.5°C | 14.2% | 0hPa | 0V | 00:00:00 | 00:00:00 | 00:00:00 | |
| DL9RDZ-1 | 2026-09-05 11:18:09 | 63.98979 | -22.57491 | 71° | 29km/h | 5024m | 5.0m/s | -19.2°C | 14.0% | 0hPa | 0V | 00:00:00 | 00:00:00 | 00:00:00 | |
| DL9RDZ-1 | 2026-09-05 11:17:58 | 63.98949 | -22.57657 | 70° | 29km/h | 4970m | 5.0m/s | -18.6°C | 13.6% | 0hPa | 0V | 00:00:00 | 00:00:00 | 00:00:00 | |
| DL9RDZ-1 | 2026-09-05 11:17:47 | 63.98919 | -22.57798 | 72° | 27km/h | 4918m | 6.3m/s | -18.2°C | 12.4% | 0hPa | 0V | 00:00:00 | 00:00:00 | 00:00:00 | |
| DL9RDZ-1 | 2026-09-05 11:17:36 | 63.98889 | -22.57941 | 68° | 22km/h | 4868m | 4.1m/s | -17.8°C | 12.2% | 0hPa | 0V | 00:00:00 | 00:00:00 | 00:00:00 | |
| DL9RDZ-1 | 2026-09-05 11:17:26 | 63.98872 | -22.58077 | 71° | 26km/h | 4827m | 4.3m/s | -17.5°C | 12.2% | 0hPa | 0V | 00:00:00 | 00:00:00 | 00:00:00 | |
| DL9RDZ-1 | 2026-09-05 11:17:15 | 63.98843 | -22.58219 | 68° | 24km/h | 4781m | 5.0m/s | -17.2°C | 11.4% | 0hPa | 0V | 00:00:00 | 00:00:00 | 00:00:00 | |
| DL9RDZ-1 | 2026-09-05 11:17:05 | 63.98825 | -22.58332 | 74° | 24km/h | 4734m | 5.5m/s | -16.8°C | 11.2% | 0hPa | 0V | 00:00:00 | 00:00:00 | 00:00:00 | |
| DL9RDZ-1 | 2026-09-05 11:16:55 | 63.98804 | -22.58446 | 74° | 24km/h | 4689m | 4.8m/s | -16.4°C | 9.9% | 0hPa | 0V | 00:00:00 | 00:00:00 | 00:00:00 | |
| DL9RDZ-1 | 2026-09-05 11:16:44 | 63.98789 | -22.58579 | 81° | 15km/h | 4642m | 3.9m/s | -16.0°C | 8.0% | 0hPa | 0V | 00:00:00 | 00:00:00 | 00:00:00 | |
| DL9RDZ-1 | 2026-09-05 11:16:34 | 63.98767 | -22.58690 | 73° | 20km/h | 4598m | 3.8m/s | -15.7°C | 6.8% | 0hPa | 0V | 00:00:00 | 00:00:00 | 00:00:00 | |
| DL9RDZ-1 | 2026-09-05 11:16:23 | 63.98750 | -22.58806 | 78° | 20km/h | 4549m | 4.3m/s | -15.6°C | 5.1% | 0hPa | 0V | 00:00:00 | 00:00:00 | 00:00:00 | |
| DL9RDZ-1 | 2026-09-05 11:15:22 | 63.98665 | -22.59480 | 35° | 11km/h | 4269m | 3.5m/s | -14.3°C | 19.7% | 0hPa | 0V | 00:00:00 | 00:00:00 | 00:00:00 | |
| DL9RDZ-1 | 2026-09-05 11:15:12 | 63.98657 | -22.59532 | 60° | 15km/h | 4218m | 4.2m/s | -14.0°C | 24.6% | 0hPa | 0V | 00:00:00 | 00:00:00 | 00:00:00 | |
| DL9RDZ-1 | 2026-09-05 11:15:01 | 63.98642 | -22.59615 | 65° | 16km/h | 4165m | 4.6m/s | -13.8°C | 26.3% | 0hPa | 0V | 00:00:00 | 00:00:00 | 00:00:00 | |
| DL9RDZ-1 | 2026-09-05 11:14:50 | 63.98619 | -22.59698 | 67° | 15km/h | 4118m | 3.9m/s | -13.6°C | 19.1% | 0hPa | 0V | 00:00:00 | 00:00:00 | 00:00:00 | |
| DL9RDZ-1 | 2026-09-05 11:14:40 | 63.98584 | -22.59764 | 32° | 22km/h | 4070m | 4.6m/s | -14.1°C | 27.7% | 0hPa | 0V | 00:00:00 | 00:00:00 | 00:00:00 | |
| DL9RDZ-1 | 2026-09-05 11:14:30 | 63.98553 | -22.59842 | 22° | 16km/h | 4030m | 4.5m/s | -14.2°C | 37.7% | 0hPa | 0V | 00:00:00 | 00:00:00 | 00:00:00 | |
| DL9RDZ-1 | 2026-09-05 11:14:19 | 63.98519 | -22.59879 | 34° | 15km/h | 3974m | 5.2m/s | -14.1°C | 47.2% | 0hPa | 0V | 00:00:00 | 00:00:00 | 00:00:00 | |
| DL9RDZ-1 | 2026-09-05 11:14:09 | 63.98488 | -22.59898 | 38° | 7km/h | 3926m | 4.4m/s | -13.9°C | 62.7% | 0hPa | 0V | 00:00:00 | 00:00:00 | 00:00:00 | |
| DL9RDZ-1 | 2026-09-05 11:13:58 | 63.98453 | -22.59908 | 358° | 18km/h | 3874m | 2.9m/s | -13.7°C | 72.6% | 0hPa | 0V | 00:00:00 | 00:00:00 | 00:00:00 | |
| DL9RDZ-1 | 2026-09-05 11:13:47 | 63.98414 | -22.59905 | 351° | 11km/h | 3821m | 3.4m/s | -13.1°C | 71.0% | 0hPa | 0V | 00:00:00 | 00:00:00 | 00:00:00 | |
| DL9RDZ-1 | 2026-09-05 11:13:37 | 63.98386 | -22.59942 | 15° | 13km/h | 3769m | 4.4m/s | -12.9°C | 73.2% | 0hPa | 0V | 00:00:00 | 00:00:00 | 00:00:00 | |
| DL9RDZ-1 | 2026-09-05 11:13:26 | 63.98366 | -22.59927 | 4° | 4km/h | 3718m | 5.0m/s | -12.7°C | 76.8% | 0hPa | 0V | 00:00:00 | 00:00:00 | 00:00:00 | |
| DL9RDZ-1 | 2026-09-05 11:11:38 | 63.98018 | -22.59633 | 292° | 9km/h | 3182m | 5.0m/s | -10.4°C | 76.0% | 0hPa | 0V | 00:00:00 | 00:00:00 | 00:00:00 | |
| DL9RDZ-1 | 2026-09-05 11:11:28 | 63.98002 | -22.59626 | 350° | 9km/h | 3134m | 4.5m/s | -9.9°C | 74.7% | 0hPa | 0V | 00:00:00 | 00:00:00 | 00:00:00 | |
| DL9RDZ-1 | 2026-09-05 11:11:17 | 63.97968 | -22.59590 | 341° | 15km/h | 3085m | 3.3m/s | -9.5°C | 74.1% | 0hPa | 0V | 00:00:00 | 00:00:00 | 00:00:00 | |
| DL9RDZ-1 | 2026-09-05 11:11:07 | 63.97933 | -22.59578 | 342° | 13km/h | 3034m | 4.8m/s | -9.1°C | 73.9% | 0hPa | 0V | 00:00:00 | 00:00:00 | 00:00:00 | |
| DL9RDZ-1 | 2026-09-05 11:10:57 | 63.97905 | -22.59566 | 24° | 7km/h | 2991m | 4.9m/s | -8.8°C | 72.9% | 0hPa | 0V | 00:00:00 | 00:00:00 | 00:00:00 | |
| DL9RDZ-1 | 2026-09-05 11:10:35 | 63.97838 | -22.59569 | 358° | 13km/h | 2871m | 5.3m/s | -7.8°C | 64.6% | 0hPa | 0V | 00:00:00 | 00:00:00 | 00:00:00 | |
| DL9RDZ-1 | 2026-09-05 11:10:24 | 63.97805 | -22.59545 | 323° | 13km/h | 2817m | 4.0m/s | -7.5°C | 65.4% | 0hPa | 0V | 00:00:00 | 00:00:00 | 00:00:00 | |
| DL9RDZ-1 | 2026-09-05 11:10:14 | 63.97776 | -22.59517 | 350° | 11km/h | 2774m | 3.0m/s | -7.1°C | 63.6% | 0hPa | 0V | 00:00:00 | 00:00:00 | 00:00:00 | |
| DL9RDZ-1 | 2026-09-05 11:10:03 | 63.97761 | -22.59534 | 327° | 5km/h | 2717m | 4.5m/s | -6.7°C | 63.0% | 0hPa | 0V | 00:00:00 | 00:00:00 | 00:00:00 | |
| DL9RDZ-1 | 2026-09-05 11:09:53 | 63.97737 | -22.59552 | 340° | 9km/h | 2674m | 3.8m/s | -6.3°C | 59.7% | 0hPa | 0V | 00:00:00 | 00:00:00 | 00:00:00 | |
| DL9RDZ-1 | 2026-09-05 11:09:43 | 63.97717 | -22.59558 | 71° | 11km/h | 2625m | 5.6m/s | -6.1°C | 56.9% | 0hPa | 0V | 00:00:00 | 00:00:00 | 00:00:00 | |
| DL9RDZ-1 | 2026-09-05 11:09:33 | 63.97697 | -22.59592 | 32° | 11km/h | 2575m | 4.4m/s | -5.8°C | 0% | 0hPa | 0V | 00:00:00 | 00:00:00 | 00:00:00 | |
| DL9RDZ-1 | 2026-09-05 11:09:23 | 63.97674 | -22.59623 | 34° | 15km/h | 2529m | 4.9m/s | -5.4°C | 0% | 0hPa | 0V | 00:00:00 | 00:00:00 | 00:00:00 | |
| DL9RDZ-1 | 2026-09-05 11:09:12 | 63.97645 | -22.59670 | 33° | 11km/h | 2476m | 5.2m/s | -5.0°C | 0% | 0hPa | 0V | 00:00:00 | 00:00:00 | 00:00:00 | |
| DL9RDZ-1 | 2026-09-05 11:09:01 | 63.97622 | -22.59681 | 7° | 9km/h | 2425m | 3.3m/s | -4.6°C | 0% | 0hPa | 0V | 00:00:00 | 00:00:00 | 00:00:00 | |
| DL9RDZ-1 | 2026-09-05 11:06:21 | 63.97392 | -22.60264 | 26° | 16km/h | 1655m | 6.2m/s | -0.2°C | 0% | 0hPa | 0V | 00:00:00 | 00:00:00 | 00:00:00 | |
| DL9RDZ-1 | 2026-09-05 11:06:08 | 63.97358 | -22.60320 | 12° | 16km/h | 1600m | 6.5m/s | -0.0°C | 0% | 0hPa | 0V | 00:00:00 | 00:00:00 | 00:00:00 | |
| DL9RDZ-1 | 2026-09-05 11:05:57 | 63.97319 | -22.60356 | 35° | 11km/h | 1543m | 4.5m/s | -0.1°C | 0% | 0hPa | 0V | 00:00:00 | 00:00:00 | 00:00:00 | |
| DL9RDZ-1 | 2026-09-05 11:05:47 | 63.97295 | -22.60395 | 44° | 13km/h | 1495m | 2.7m/s | 0.0°C | 0% | 0hPa | 0V | 00:00:00 | 00:00:00 | 00:00:00 | |
| DL9RDZ-1 | 2026-09-05 11:05:11 | 63.97241 | -22.60612 | 68° | 11km/h | 1309m | 6.8m/s | 0°C | 0% | 0hPa | 0V | 00:00:00 | 00:00:00 | 00:00:00 | |
| DL9RDZ-1 | 2026-09-05 11:05:01 | 63.97225 | -22.60679 | 82° | 13km/h | 1254m | 5.6m/s | 0°C | 0% | 0hPa | 0V | 00:00:00 | 00:00:00 | 00:00:00 | |
| DL9RDZ-1 | 2026-09-05 11:04:50 | 63.97224 | -22.60772 | 76° | 16km/h | 1191m | 5.6m/s | 0°C | 0% | 0hPa | 0V | 00:00:00 | 00:00:00 | 00:00:00 | |
| DL9RDZ-1 | 2026-09-05 11:04:36 | 63.97212 | -22.60848 | 63° | 9km/h | 1110m | 5.5m/s | 0°C | 0% | 0hPa | 0V | 00:00:00 | 00:00:00 | 00:00:00 | |
| DL9RDZ-1 | 2026-09-05 11:04:20 | 63.97177 | -22.60914 | 25° | 7km/h | 1027m | 5.8m/s | 0°C | 0% | 0hPa | 0V | 00:00:00 | 00:00:00 | 00:00:00 | |
| DL9RDZ-1 | 2026-09-05 11:04:04 | 63.97150 | -22.60973 | 0° | 0km/h | 948m | 3.7m/s | 0°C | 0% | 0hPa | 0V | 00:00:00 | 00:00:00 | 00:00:00 | |
| DL9RDZ-1 | 2026-09-05 11:03:49 | 63.97124 | -22.61010 | 30° | 13km/h | 866m | 5.0m/s | 0°C | 0% | 0hPa | 0V | 00:00:00 | 00:00:00 | 00:00:00 | |
| DL9RDZ-1 | 2026-09-05 11:03:38 | 63.97104 | -22.61053 | 103° | 13km/h | 803m | 5.5m/s | 0°C | 0% | 0hPa | 0V | 00:00:00 | 00:00:00 | 00:00:00 |